MAS144 NZAA-WMKK
Flight info
| Callsign | MAS144 |
|---|---|
| Flight time | 11h 36m |
| Altitude | 38000 |
| Route | BATOS4Q UPLAR A464 RIGMI/N0498F300 A464 SCOTT J208 BN V129 COOLA/N0499F320 V129 EML T13 NTN J138 SURVO/N0498F340 J138 NOKUN J61 IKUMA A464 KIKEM M774 POVOT/N0489F360 M774 JUNHA DCT IRTAD A464 SJ G579 VJB A457 GUPTA GUPTA1G |
| Aircraft | A339/H-V/N |
Departure
| Time | 2026-05-07 03:10 |
|---|---|
| Airport | Auckland International Airport (NZAA) |
Arrival
| Time | 2026-05-07 14:47 |
|---|---|
| Airport | Kuala Lumpur International Airport (WMKK) |
| Time | Latitude | Longitude | Altitude | Speed | Heading |
|---|---|---|---|---|---|
| 2026-05-07 02:57 | -37.00502 | 174.77892 | 31 ft | 0 kts | 339° |
| 2026-05-07 03:02 | -37.00505 | 174.77894 | 31 ft | 3 kts | 339° |
| 2026-05-07 03:02 | -37.00530 | 174.77906 | 31 ft | 4 kts | 340° |
| 2026-05-07 03:03 | -37.00556 | 174.77917 | 30 ft | 4 kts | 340° |
| 2026-05-07 03:03 | -37.00579 | 174.77927 | 30 ft | 4 kts | 333° |
| 2026-05-07 03:03 | -37.00595 | 174.77931 | 31 ft | 4 kts | 277° |
| 2026-05-07 03:03 | -37.00593 | 174.77954 | 31 ft | 4 kts | 244° |
| 2026-05-07 03:04 | -37.00582 | 174.77983 | 29 ft | 2 kts | 250° |
| 2026-05-07 03:04 | -37.00581 | 174.77985 | 29 ft | 0 kts | 251° |
| 2026-05-07 03:06 | -37.00592 | 174.77945 | 31 ft | 14 kts | 251° |
| 2026-05-07 03:06 | -37.00629 | 174.77815 | 31 ft | 17 kts | 251° |
| 2026-05-07 03:06 | -37.00667 | 174.77674 | 31 ft | 18 kts | 251° |
| 2026-05-07 03:07 | -37.00734 | 174.77546 | 31 ft | 17 kts | 198° |
| 2026-05-07 03:07 | -37.00833 | 174.77586 | 31 ft | 17 kts | 163° |
| 2026-05-07 03:07 | -37.00954 | 174.77634 | 31 ft | 19 kts | 162° |
| 2026-05-07 03:07 | -37.01081 | 174.77687 | 31 ft | 19 kts | 159° |
| 2026-05-07 03:08 | -37.01208 | 174.77738 | 31 ft | 19 kts | 176° |
| 2026-05-07 03:08 | -37.01299 | 174.77588 | 31 ft | 27 kts | 250° |
| 2026-05-07 03:08 | -37.01360 | 174.77364 | 31 ft | 27 kts | 251° |
| 2026-05-07 03:08 | -37.01414 | 174.77166 | 31 ft | 20 kts | 251° |
| 2026-05-07 03:09 | -37.01483 | 174.77105 | 31 ft | 7 kts | 194° |
| 2026-05-07 03:09 | -37.01542 | 174.77089 | 31 ft | 13 kts | 192° |
| 2026-05-07 03:09 | -37.01616 | 174.77110 | 31 ft | 11 kts | 114° |
| 2026-05-07 03:09 | -37.01590 | 174.77231 | 31 ft | 17 kts | 71° |
| 2026-05-07 03:10 | -37.01469 | 174.77662 | 32 ft | 93 kts | 70° |
| 2026-05-07 03:10 | -37.01180 | 174.78712 | 30 ft | 158 kts | 71° |
| 2026-05-07 03:10 | -37.00786 | 174.80186 | 213 ft | 191 kts | 68° |
| 2026-05-07 03:10 | -37.00349 | 174.81835 | 661 ft | 209 kts | 67° |
| 2026-05-07 03:11 | -36.99820 | 174.83613 | 1241 ft | 222 kts | 64° |
| 2026-05-07 03:11 | -36.99249 | 174.85486 | 1745 ft | 243 kts | 67° |
| 2026-05-07 03:11 | -36.98434 | 174.87352 | 2396 ft | 242 kts | 44° |
| 2026-05-07 03:11 | -36.97061 | 174.88535 | 3183 ft | 240 kts | 18° |
| 2026-05-07 03:12 | -36.95420 | 174.88985 | 3893 ft | 243 kts | 6° |
| 2026-05-07 03:12 | -36.93732 | 174.89085 | 4678 ft | 244 kts | 357° |
| 2026-05-07 03:12 | -36.92029 | 174.88778 | 5280 ft | 251 kts | 346° |
| 2026-05-07 03:12 | -36.90378 | 174.88072 | 5978 ft | 253 kts | 337° |
| 2026-05-07 03:13 | -36.88806 | 174.87028 | 6587 ft | 257 kts | 328° |
| 2026-05-07 03:13 | -36.87354 | 174.85702 | 7192 ft | 260 kts | 321° |
| 2026-05-07 03:13 | -36.86047 | 174.84129 | 7775 ft | 263 kts | 312° |
| 2026-05-07 03:13 | -36.85105 | 174.82189 | 8316 ft | 268 kts | 294° |
| 2026-05-07 03:14 | -36.84607 | 174.79927 | 8841 ft | 274 kts | 281° |
| 2026-05-07 03:14 | -36.84470 | 174.77537 | 9382 ft | 278 kts | 273° |
| 2026-05-07 03:14 | -36.84707 | 174.72656 | 10233 ft | 290 kts | 268° |
| 2026-05-07 03:15 | -36.84895 | 174.70082 | 10356 ft | 304 kts | 268° |
| 2026-05-07 03:15 | -36.85083 | 174.67393 | 10484 ft | 317 kts | 268° |
| 2026-05-07 03:15 | -36.85267 | 174.64593 | 10617 ft | 330 kts | 268° |
| 2026-05-07 03:15 | -36.85448 | 174.61718 | 11094 ft | 332 kts | 268° |
| 2026-05-07 03:16 | -36.85627 | 174.58838 | 11663 ft | 334 kts | 268° |
| 2026-05-07 03:16 | -36.85803 | 174.55933 | 12238 ft | 336 kts | 268° |
| 2026-05-07 03:16 | -36.85979 | 174.53016 | 12789 ft | 339 kts | 268° |
| 2026-05-07 03:16 | -36.86153 | 174.50075 | 13382 ft | 340 kts | 268° |
| 2026-05-07 03:17 | -36.86327 | 174.47164 | 13927 ft | 342 kts | 267° |
| 2026-05-07 03:17 | -36.86507 | 174.44192 | 14418 ft | 345 kts | 267° |
| 2026-05-07 03:17 | -36.86687 | 174.41189 | 14925 ft | 347 kts | 267° |
| 2026-05-07 03:17 | -36.86867 | 174.38173 | 15408 ft | 350 kts | 267° |
| 2026-05-07 03:18 | -36.87048 | 174.35130 | 15892 ft | 352 kts | 267° |
| 2026-05-07 03:18 | -36.87229 | 174.32070 | 16386 ft | 355 kts | 267° |
| 2026-05-07 03:18 | -36.87411 | 174.28985 | 16861 ft | 357 kts | 267° |
| 2026-05-07 03:18 | -36.87593 | 174.25883 | 17346 ft | 360 kts | 267° |
| 2026-05-07 03:19 | -36.87776 | 174.22751 | 17816 ft | 363 kts | 267° |
| 2026-05-07 03:19 | -36.87960 | 174.19600 | 18316 ft | 365 kts | 267° |
| 2026-05-07 03:19 | -36.88144 | 174.16433 | 18752 ft | 367 kts | 267° |
| 2026-05-07 03:19 | -36.88329 | 174.13232 | 19165 ft | 370 kts | 267° |
| 2026-05-07 03:20 | -36.88515 | 174.10013 | 19596 ft | 372 kts | 267° |
| 2026-05-07 03:20 | -36.88701 | 174.06777 | 20017 ft | 375 kts | 267° |
| 2026-05-07 03:20 | -36.88887 | 174.03521 | 20446 ft | 377 kts | 267° |
| 2026-05-07 03:20 | -36.89073 | 174.00244 | 20863 ft | 380 kts | 267° |
| 2026-05-07 03:21 | -36.89189 | 173.96940 | 21240 ft | 382 kts | 274° |
| 2026-05-07 03:21 | -36.88682 | 173.93686 | 21664 ft | 383 kts | 290° |
| 2026-05-07 03:21 | -36.87469 | 173.90726 | 22102 ft | 385 kts | 305° |
| 2026-05-07 03:21 | -36.85849 | 173.88047 | 22471 ft | 388 kts | 303° |
| 2026-05-07 03:22 | -36.84593 | 173.85059 | 22914 ft | 390 kts | 295° |
| 2026-05-07 03:22 | -36.83493 | 173.81951 | 23319 ft | 393 kts | 294° |
| 2026-05-07 03:22 | -36.82333 | 173.78843 | 23749 ft | 396 kts | 296° |
| 2026-05-07 03:22 | -36.81082 | 173.75770 | 24131 ft | 398 kts | 298° |
| 2026-05-07 03:23 | -36.79767 | 173.72728 | 24535 ft | 400 kts | 299° |
| 2026-05-07 03:23 | -36.78414 | 173.69689 | 24907 ft | 402 kts | 300° |
| 2026-05-07 03:23 | -36.77040 | 173.66644 | 25286 ft | 404 kts | 300° |
| 2026-05-07 03:23 | -36.75677 | 173.63631 | 25670 ft | 405 kts | 300° |
| 2026-05-07 03:24 | -36.74288 | 173.60560 | 26036 ft | 407 kts | 300° |
| 2026-05-07 03:24 | -36.72874 | 173.57433 | 26418 ft | 409 kts | 300° |
| 2026-05-07 03:24 | -36.71492 | 173.54377 | 26776 ft | 411 kts | 300° |
| 2026-05-07 03:24 | -36.70082 | 173.51260 | 27143 ft | 414 kts | 300° |
| 2026-05-07 03:25 | -36.68662 | 173.48123 | 27503 ft | 416 kts | 300° |
| 2026-05-07 03:25 | -36.67238 | 173.44980 | 27859 ft | 418 kts | 300° |
| 2026-05-07 03:25 | -36.65806 | 173.41824 | 28205 ft | 420 kts | 300° |
| 2026-05-07 03:25 | -36.64365 | 173.38651 | 28543 ft | 422 kts | 300° |
| 2026-05-07 03:26 | -36.62916 | 173.35461 | 28872 ft | 424 kts | 300° |
| 2026-05-07 03:26 | -36.61462 | 173.32265 | 29215 ft | 425 kts | 300° |
| 2026-05-07 03:26 | -36.60000 | 173.29055 | 29536 ft | 428 kts | 300° |
| 2026-05-07 03:26 | -36.58529 | 173.25828 | 29848 ft | 430 kts | 300° |
| 2026-05-07 03:27 | -36.57052 | 173.22590 | 30190 ft | 432 kts | 300° |
| 2026-05-07 03:27 | -36.55563 | 173.19331 | 30480 ft | 434 kts | 300° |
| 2026-05-07 03:27 | -36.54071 | 173.16067 | 30804 ft | 434 kts | 300° |
| 2026-05-07 03:27 | -36.52595 | 173.12840 | 31118 ft | 436 kts | 300° |
| 2026-05-07 03:28 | -36.51091 | 173.09559 | 31417 ft | 437 kts | 300° |
| 2026-05-07 03:28 | -36.49583 | 173.06269 | 31736 ft | 438 kts | 300° |
| 2026-05-07 03:28 | -36.48069 | 173.02969 | 32032 ft | 440 kts | 300° |
| 2026-05-07 03:28 | -36.46551 | 172.99667 | 32334 ft | 441 kts | 300° |
| 2026-05-07 03:29 | -36.45028 | 172.96354 | 32612 ft | 442 kts | 300° |
| 2026-05-07 03:29 | -36.43497 | 172.93029 | 32868 ft | 444 kts | 300° |
| 2026-05-07 03:29 | -36.41963 | 172.89699 | 33090 ft | 445 kts | 300° |
| 2026-05-07 03:29 | -36.40424 | 172.86363 | 33299 ft | 446 kts | 300° |
| 2026-05-07 03:30 | -36.38880 | 172.83020 | 33475 ft | 447 kts | 300° |
| 2026-05-07 03:30 | -36.37335 | 172.79677 | 33648 ft | 447 kts | 300° |
| 2026-05-07 03:30 | -36.35787 | 172.76332 | 33836 ft | 447 kts | 300° |
| 2026-05-07 03:30 | -36.34235 | 172.72980 | 34048 ft | 446 kts | 300° |
| 2026-05-07 03:31 | -36.32688 | 172.69644 | 34252 ft | 445 kts | 300° |
| 2026-05-07 03:31 | -36.31148 | 172.66324 | 34441 ft | 445 kts | 300° |
| 2026-05-07 03:31 | -36.29605 | 172.63003 | 34626 ft | 444 kts | 300° |
| 2026-05-07 03:31 | -36.28061 | 172.59682 | 34790 ft | 444 kts | 300° |
| 2026-05-07 03:32 | -36.26523 | 172.56376 | 34959 ft | 443 kts | 299° |
| 2026-05-07 03:32 | -36.24982 | 172.53069 | 35129 ft | 443 kts | 299° |
| 2026-05-07 03:32 | -36.23442 | 172.49767 | 35298 ft | 442 kts | 299° |
| 2026-05-07 03:32 | -36.21903 | 172.46471 | 35471 ft | 442 kts | 299° |
| 2026-05-07 03:33 | -36.20365 | 172.43181 | 35639 ft | 441 kts | 299° |
| 2026-05-07 03:33 | -36.18827 | 172.39892 | 35806 ft | 441 kts | 299° |
| 2026-05-07 03:33 | -36.17292 | 172.36614 | 35968 ft | 440 kts | 299° |
| 2026-05-07 03:33 | -36.15757 | 172.33339 | 36124 ft | 440 kts | 299° |
| 2026-05-07 03:34 | -36.14224 | 172.30069 | 36282 ft | 439 kts | 299° |
| 2026-05-07 03:34 | -36.12691 | 172.26804 | 36459 ft | 438 kts | 299° |
| 2026-05-07 03:34 | -36.11159 | 172.23546 | 36621 ft | 438 kts | 299° |
| 2026-05-07 03:34 | -36.09630 | 172.20297 | 36779 ft | 437 kts | 299° |
| 2026-05-07 03:35 | -36.08100 | 172.17047 | 36933 ft | 437 kts | 299° |
| 2026-05-07 03:35 | -36.06574 | 172.13810 | 37099 ft | 436 kts | 299° |
| 2026-05-07 03:35 | -36.05065 | 172.10611 | 37257 ft | 435 kts | 299° |
| 2026-05-07 03:35 | -36.03537 | 172.07377 | 37422 ft | 435 kts | 299° |
| 2026-05-07 03:36 | -36.02015 | 172.04156 | 37582 ft | 434 kts | 299° |
| 2026-05-07 03:36 | -36.00493 | 172.00940 | 37737 ft | 433 kts | 299° |
| 2026-05-07 03:36 | -35.98974 | 171.97733 | 37907 ft | 432 kts | 299° |
| 2026-05-07 03:36 | -35.97456 | 171.94530 | 38047 ft | 432 kts | 299° |
| 2026-05-07 03:37 | -35.95938 | 171.91332 | 38163 ft | 431 kts | 299° |
| 2026-05-07 03:37 | -35.92909 | 171.84956 | 38157 ft | 430 kts | 299° |
| 2026-05-07 03:38 | -35.89879 | 171.78592 | 38156 ft | 430 kts | 299° |
| 2026-05-07 03:38 | -35.86851 | 171.72243 | 38152 ft | 429 kts | 299° |
| 2026-05-07 03:39 | -35.83819 | 171.65898 | 38157 ft | 429 kts | 299° |
| 2026-05-07 03:39 | -35.80789 | 171.59570 | 38151 ft | 428 kts | 299° |
| 2026-05-07 03:40 | -35.77761 | 171.53258 | 38146 ft | 428 kts | 299° |
| 2026-05-07 03:40 | -35.74754 | 171.46998 | 38146 ft | 427 kts | 299° |
| 2026-05-07 03:41 | -35.71725 | 171.40706 | 38143 ft | 427 kts | 299° |
| 2026-05-07 03:41 | -35.68697 | 171.34428 | 38138 ft | 426 kts | 299° |
| 2026-05-07 03:42 | -35.65667 | 171.28158 | 38141 ft | 426 kts | 299° |
| 2026-05-07 03:42 | -35.62635 | 171.21894 | 38141 ft | 426 kts | 299° |
| 2026-05-07 03:43 | -35.59604 | 171.15642 | 38137 ft | 426 kts | 299° |
| 2026-05-07 03:43 | -35.56596 | 171.09383 | 38130 ft | 425 kts | 297° |
| 2026-05-07 03:44 | -35.54122 | 171.02858 | 38134 ft | 424 kts | 293° |
| 2026-05-07 03:44 | -35.51704 | 170.96255 | 38127 ft | 424 kts | 293° |
| 2026-05-07 03:45 | -35.49274 | 170.89657 | 38129 ft | 424 kts | 294° |
| 2026-05-07 03:45 | -35.46842 | 170.83070 | 38130 ft | 424 kts | 294° |
| 2026-05-07 03:46 | -35.44404 | 170.76482 | 38127 ft | 424 kts | 294° |
| 2026-05-07 03:46 | -35.41963 | 170.69897 | 38129 ft | 424 kts | 294° |
| 2026-05-07 03:47 | -35.39521 | 170.63325 | 38128 ft | 424 kts | 294° |
| 2026-05-07 03:47 | -35.37070 | 170.56749 | 38128 ft | 424 kts | 294° |
| 2026-05-07 03:48 | -35.34618 | 170.50185 | 38125 ft | 423 kts | 294° |
| 2026-05-07 03:48 | -35.32179 | 170.43673 | 38124 ft | 423 kts | 294° |
| 2026-05-07 03:49 | -35.29723 | 170.37129 | 38122 ft | 423 kts | 294° |
| 2026-05-07 03:49 | -35.27264 | 170.30589 | 38120 ft | 423 kts | 294° |
| 2026-05-07 03:50 | -35.24801 | 170.24052 | 38116 ft | 423 kts | 294° |
| 2026-05-07 03:50 | -35.22337 | 170.17527 | 38114 ft | 422 kts | 294° |
| 2026-05-07 03:51 | -35.19872 | 170.11011 | 38115 ft | 422 kts | 294° |
| 2026-05-07 03:51 | -35.17404 | 170.04500 | 38110 ft | 422 kts | 294° |
| 2026-05-07 03:52 | -35.14934 | 169.97997 | 38111 ft | 422 kts | 294° |
| 2026-05-07 03:52 | -35.12478 | 169.91543 | 38108 ft | 421 kts | 294° |
| 2026-05-07 03:53 | -35.10004 | 169.85059 | 38109 ft | 421 kts | 294° |
| 2026-05-07 03:53 | -35.07529 | 169.78580 | 38105 ft | 421 kts | 294° |
| 2026-05-07 03:54 | -35.05052 | 169.72111 | 38098 ft | 420 kts | 294° |
| 2026-05-07 03:54 | -35.02572 | 169.65647 | 38102 ft | 420 kts | 294° |
| 2026-05-07 03:55 | -35.00091 | 169.59194 | 38098 ft | 420 kts | 294° |
| 2026-05-07 03:55 | -34.98026 | 169.53832 | 38095 ft | 420 kts | 294° |
| 2026-05-07 03:56 | -34.95542 | 169.47394 | 38097 ft | 419 kts | 294° |
| 2026-05-07 03:56 | -34.93058 | 169.40968 | 38094 ft | 419 kts | 294° |
| 2026-05-07 03:57 | -34.90570 | 169.34545 | 38092 ft | 418 kts | 294° |
| 2026-05-07 03:57 | -34.88085 | 169.28142 | 38089 ft | 418 kts | 294° |
| 2026-05-07 03:58 | -34.85597 | 169.21743 | 38091 ft | 417 kts | 294° |
| 2026-05-07 03:58 | -34.83126 | 169.15402 | 38090 ft | 417 kts | 294° |
| 2026-05-07 03:59 | -34.80638 | 169.09029 | 38084 ft | 416 kts | 294° |
| 2026-05-07 03:59 | -34.78153 | 169.02676 | 38084 ft | 416 kts | 294° |
| 2026-05-07 04:00 | -34.75664 | 168.96326 | 38084 ft | 415 kts | 294° |
| 2026-05-07 04:00 | -34.73177 | 168.89992 | 38077 ft | 415 kts | 294° |
| 2026-05-07 04:01 | -34.70688 | 168.83666 | 38078 ft | 414 kts | 294° |
| 2026-05-07 04:01 | -34.68201 | 168.77357 | 38075 ft | 414 kts | 294° |
| 2026-05-07 04:02 | -34.65713 | 168.71057 | 38079 ft | 413 kts | 294° |
| 2026-05-07 04:02 | -34.63225 | 168.64769 | 38076 ft | 412 kts | 294° |
| 2026-05-07 04:03 | -34.60739 | 168.58497 | 38071 ft | 412 kts | 294° |
| 2026-05-07 04:03 | -34.58254 | 168.52240 | 38067 ft | 412 kts | 294° |
| 2026-05-07 04:04 | -34.55763 | 168.45981 | 38070 ft | 411 kts | 294° |
| 2026-05-07 04:04 | -34.53275 | 168.39740 | 38066 ft | 411 kts | 294° |
| 2026-05-07 04:05 | -34.50800 | 168.33543 | 38067 ft | 411 kts | 294° |
| 2026-05-07 04:05 | -34.48295 | 168.27281 | 38064 ft | 410 kts | 294° |
| 2026-05-07 04:06 | -34.45822 | 168.21113 | 38059 ft | 410 kts | 294° |
| 2026-05-07 04:06 | -34.43326 | 168.14898 | 38062 ft | 410 kts | 294° |
| 2026-05-07 04:07 | -34.40827 | 168.08688 | 38058 ft | 409 kts | 294° |
| 2026-05-07 04:07 | -34.38334 | 168.02502 | 38058 ft | 409 kts | 294° |
| 2026-05-07 04:08 | -34.35839 | 167.96325 | 38051 ft | 408 kts | 294° |
| 2026-05-07 04:08 | -34.33340 | 167.90149 | 38050 ft | 408 kts | 294° |
| 2026-05-07 04:09 | -34.30842 | 167.83986 | 38047 ft | 408 kts | 294° |
| 2026-05-07 04:09 | -34.28344 | 167.77834 | 38045 ft | 408 kts | 294° |
| 2026-05-07 04:10 | -34.25841 | 167.71683 | 38044 ft | 408 kts | 294° |
| 2026-05-07 04:10 | -34.23338 | 167.65540 | 38042 ft | 407 kts | 295° |
| 2026-05-07 04:11 | -34.20831 | 167.59398 | 38038 ft | 407 kts | 295° |
| 2026-05-07 04:11 | -34.18322 | 167.53266 | 38042 ft | 407 kts | 295° |
| 2026-05-07 04:12 | -34.15811 | 167.47138 | 38041 ft | 407 kts | 295° |
| 2026-05-07 04:12 | -34.13299 | 167.41019 | 38039 ft | 407 kts | 295° |
| 2026-05-07 04:13 | -34.10782 | 167.34897 | 38042 ft | 407 kts | 295° |
| 2026-05-07 04:13 | -34.08263 | 167.28785 | 38038 ft | 407 kts | 295° |
| 2026-05-07 04:14 | -34.05761 | 167.22724 | 38039 ft | 406 kts | 295° |
| 2026-05-07 04:14 | -34.03241 | 167.16630 | 38033 ft | 406 kts | 295° |
| 2026-05-07 04:15 | -34.00723 | 167.10550 | 38030 ft | 405 kts | 295° |
| 2026-05-07 04:15 | -33.98201 | 167.04473 | 38032 ft | 405 kts | 295° |
| 2026-05-07 04:16 | -33.95679 | 166.98407 | 38030 ft | 405 kts | 295° |
| 2026-05-07 04:16 | -33.93156 | 166.92348 | 38025 ft | 405 kts | 295° |
| 2026-05-07 04:17 | -33.90630 | 166.86293 | 38023 ft | 404 kts | 295° |
| 2026-05-07 04:17 | -33.88105 | 166.80250 | 38022 ft | 404 kts | 295° |
| 2026-05-07 04:18 | -33.85574 | 166.74205 | 38025 ft | 404 kts | 295° |
| 2026-05-07 04:18 | -33.83043 | 166.68170 | 38028 ft | 405 kts | 295° |
| 2026-05-07 04:19 | -33.80503 | 166.62124 | 38020 ft | 405 kts | 295° |
| 2026-05-07 04:19 | -33.77984 | 166.56140 | 38022 ft | 403 kts | 295° |
| 2026-05-07 04:20 | -33.75445 | 166.50118 | 38023 ft | 403 kts | 295° |
| 2026-05-07 04:20 | -33.72905 | 166.44105 | 38018 ft | 403 kts | 295° |
| 2026-05-07 04:21 | -33.69099 | 166.35113 | 38017 ft | 402 kts | 295° |
| 2026-05-07 04:21 | -33.66560 | 166.29126 | 38011 ft | 402 kts | 295° |
| 2026-05-07 04:22 | -33.64020 | 166.23149 | 38016 ft | 402 kts | 295° |
| 2026-05-07 04:22 | -33.61471 | 166.17159 | 38019 ft | 402 kts | 295° |
| 2026-05-07 04:23 | -33.58924 | 166.11185 | 38015 ft | 402 kts | 295° |
| 2026-05-07 04:23 | -33.56378 | 166.05223 | 38010 ft | 401 kts | 295° |
| 2026-05-07 04:24 | -33.53832 | 165.99273 | 38006 ft | 401 kts | 295° |
| 2026-05-07 04:24 | -33.51303 | 165.93371 | 38007 ft | 401 kts | 295° |
| 2026-05-07 04:25 | -33.48756 | 165.87437 | 38005 ft | 400 kts | 295° |
| 2026-05-07 04:25 | -33.46204 | 165.81502 | 38008 ft | 400 kts | 295° |
| 2026-05-07 04:26 | -33.43650 | 165.75574 | 38003 ft | 400 kts | 295° |
| 2026-05-07 04:26 | -33.41097 | 165.69658 | 38004 ft | 400 kts | 295° |
| 2026-05-07 04:27 | -33.38542 | 165.63746 | 38002 ft | 400 kts | 295° |
| 2026-05-07 04:27 | -33.35983 | 165.57834 | 38001 ft | 399 kts | 295° |
| 2026-05-07 04:28 | -33.33423 | 165.51931 | 38000 ft | 399 kts | 295° |
| 2026-05-07 04:28 | -33.30881 | 165.46079 | 38000 ft | 399 kts | 295° |
| 2026-05-07 04:29 | -33.28321 | 165.40196 | 37998 ft | 399 kts | 295° |
| 2026-05-07 04:29 | -33.25759 | 165.34316 | 37994 ft | 398 kts | 295° |
| 2026-05-07 04:30 | -33.23197 | 165.28449 | 37990 ft | 398 kts | 295° |
| 2026-05-07 04:30 | -33.20635 | 165.22589 | 37994 ft | 398 kts | 295° |
| 2026-05-07 04:31 | -33.18068 | 165.16728 | 37988 ft | 398 kts | 295° |
| 2026-05-07 04:31 | -33.15499 | 165.10872 | 37993 ft | 398 kts | 295° |
| 2026-05-07 04:32 | -33.12930 | 165.05028 | 37998 ft | 397 kts | 295° |
| 2026-05-07 04:32 | -33.10366 | 164.99202 | 37994 ft | 397 kts | 295° |
| 2026-05-07 04:33 | -33.07799 | 164.93381 | 37993 ft | 396 kts | 295° |
| 2026-05-07 04:33 | -33.05231 | 164.87565 | 37991 ft | 396 kts | 295° |
| 2026-05-07 04:34 | -33.02662 | 164.81758 | 37990 ft | 396 kts | 295° |
| 2026-05-07 04:34 | -33.00110 | 164.75997 | 37988 ft | 396 kts | 295° |
| 2026-05-07 04:35 | -32.97539 | 164.70205 | 37983 ft | 395 kts | 295° |
| 2026-05-07 04:35 | -32.94963 | 164.64409 | 37981 ft | 395 kts | 295° |
| 2026-05-07 04:36 | -32.92388 | 164.58626 | 37983 ft | 395 kts | 295° |
| 2026-05-07 04:36 | -32.89808 | 164.52839 | 37982 ft | 395 kts | 295° |
| 2026-05-07 04:37 | -32.87232 | 164.47072 | 37982 ft | 395 kts | 295° |
| 2026-05-07 04:37 | -32.84653 | 164.41308 | 37982 ft | 394 kts | 295° |
| 2026-05-07 04:38 | -32.82093 | 164.35594 | 37982 ft | 394 kts | 295° |
| 2026-05-07 04:38 | -32.79510 | 164.29838 | 37978 ft | 394 kts | 295° |
| 2026-05-07 04:39 | -32.76929 | 164.24096 | 37979 ft | 394 kts | 295° |
| 2026-05-07 04:39 | -32.74345 | 164.18359 | 37980 ft | 393 kts | 295° |
| 2026-05-07 04:40 | -32.71763 | 164.12632 | 37980 ft | 393 kts | 295° |
| 2026-05-07 04:40 | -32.69181 | 164.06918 | 37976 ft | 393 kts | 295° |
| 2026-05-07 04:41 | -32.66598 | 164.01207 | 37977 ft | 392 kts | 295° |
| 2026-05-07 04:41 | -32.64033 | 163.95546 | 37978 ft | 392 kts | 295° |
| 2026-05-07 04:42 | -32.61450 | 163.89853 | 37977 ft | 392 kts | 295° |
| 2026-05-07 04:42 | -32.59288 | 163.85095 | 37976 ft | 391 kts | 295° |
| 2026-05-07 04:43 | -32.56702 | 163.79414 | 37972 ft | 391 kts | 295° |
| 2026-05-07 04:43 | -32.54118 | 163.73745 | 37976 ft | 391 kts | 295° |
| 2026-05-07 04:44 | -32.51535 | 163.68088 | 37971 ft | 390 kts | 295° |
| 2026-05-07 04:44 | -32.48949 | 163.62432 | 37974 ft | 390 kts | 295° |
| 2026-05-07 04:45 | -32.46382 | 163.56828 | 37970 ft | 390 kts | 295° |
| 2026-05-07 04:45 | -32.43798 | 163.51192 | 37973 ft | 389 kts | 295° |
| 2026-05-07 04:46 | -32.41213 | 163.45566 | 37971 ft | 389 kts | 295° |
| 2026-05-07 04:46 | -32.38627 | 163.39945 | 37972 ft | 389 kts | 295° |
| 2026-05-07 04:47 | -32.36043 | 163.34336 | 37969 ft | 388 kts | 295° |
| 2026-05-07 04:47 | -32.33458 | 163.28730 | 37969 ft | 388 kts | 295° |
| 2026-05-07 04:48 | -32.30876 | 163.23136 | 37969 ft | 387 kts | 295° |
| 2026-05-07 04:48 | -32.28296 | 163.17555 | 37971 ft | 387 kts | 295° |
| 2026-05-07 04:49 | -32.25713 | 163.11976 | 37968 ft | 386 kts | 295° |
| 2026-05-07 04:49 | -32.23148 | 163.06446 | 37969 ft | 386 kts | 295° |
| 2026-05-07 04:50 | -32.20565 | 163.00888 | 37968 ft | 386 kts | 296° |
| 2026-05-07 04:50 | -32.17931 | 162.95374 | 37964 ft | 385 kts | 296° |
| 2026-05-07 04:51 | -32.15358 | 162.89830 | 37963 ft | 385 kts | 295° |
| 2026-05-07 04:51 | -32.12786 | 162.84290 | 37965 ft | 385 kts | 295° |
| 2026-05-07 04:52 | -32.10207 | 162.78767 | 37964 ft | 384 kts | 296° |
| 2026-05-07 04:52 | -32.07621 | 162.73246 | 37967 ft | 384 kts | 296° |
| 2026-05-07 04:53 | -32.05037 | 162.67736 | 37963 ft | 384 kts | 296° |
| 2026-05-07 04:53 | -32.02450 | 162.62228 | 37964 ft | 384 kts | 296° |
| 2026-05-07 04:54 | -31.99863 | 162.56733 | 37966 ft | 383 kts | 296° |
| 2026-05-07 04:54 | -31.97268 | 162.51232 | 37964 ft | 383 kts | 296° |
| 2026-05-07 04:55 | -31.94680 | 162.45751 | 37966 ft | 383 kts | 296° |
| 2026-05-07 04:55 | -31.92106 | 162.40310 | 37964 ft | 383 kts | 296° |
| 2026-05-07 04:56 | -31.89514 | 162.34840 | 37960 ft | 383 kts | 296° |
| 2026-05-07 04:56 | -31.86906 | 162.29341 | 37962 ft | 382 kts | 296° |
| 2026-05-07 04:57 | -31.84326 | 162.23911 | 37963 ft | 382 kts | 296° |
| 2026-05-07 04:57 | -31.81735 | 162.18466 | 37964 ft | 382 kts | 296° |
| 2026-05-07 04:58 | -31.79139 | 162.13017 | 37964 ft | 381 kts | 296° |
| 2026-05-07 04:58 | -31.76545 | 162.07582 | 37961 ft | 381 kts | 296° |
| 2026-05-07 04:59 | -31.73951 | 162.02153 | 37959 ft | 381 kts | 296° |
| 2026-05-07 04:59 | -31.71355 | 161.96729 | 37959 ft | 380 kts | 296° |
| 2026-05-07 05:00 | -31.68760 | 161.91315 | 37955 ft | 380 kts | 296° |
| 2026-05-07 05:00 | -31.66162 | 161.85903 | 37959 ft | 380 kts | 296° |
| 2026-05-07 05:01 | -31.63568 | 161.80505 | 37959 ft | 380 kts | 296° |
| 2026-05-07 05:01 | -31.60972 | 161.75112 | 37958 ft | 380 kts | 296° |
| 2026-05-07 05:02 | -31.58373 | 161.69721 | 37953 ft | 379 kts | 296° |
| 2026-05-07 05:02 | -31.55786 | 161.64362 | 37959 ft | 379 kts | 296° |
| 2026-05-07 05:03 | -31.53189 | 161.58989 | 37960 ft | 379 kts | 296° |
| 2026-05-07 05:03 | -31.50590 | 161.53620 | 37955 ft | 378 kts | 296° |
| 2026-05-07 05:04 | -31.47990 | 161.48258 | 37954 ft | 378 kts | 296° |
| 2026-05-07 05:04 | -31.45392 | 161.42906 | 37953 ft | 378 kts | 296° |
| 2026-05-07 05:05 | -31.42797 | 161.37569 | 37955 ft | 377 kts | 296° |
| 2026-05-07 05:05 | -31.40202 | 161.32237 | 37954 ft | 377 kts | 296° |
| 2026-05-07 05:06 | -31.37624 | 161.26949 | 37954 ft | 376 kts | 296° |
| 2026-05-07 05:06 | -31.35010 | 161.21596 | 37957 ft | 376 kts | 296° |
| 2026-05-07 05:07 | -31.32413 | 161.16283 | 37958 ft | 376 kts | 296° |
| 2026-05-07 05:07 | -31.29816 | 161.10979 | 37955 ft | 376 kts | 296° |
| 2026-05-07 05:08 | -31.27236 | 161.05716 | 37956 ft | 375 kts | 296° |
| 2026-05-07 05:08 | -31.24638 | 161.00423 | 37956 ft | 375 kts | 296° |
| 2026-05-07 05:09 | -31.22040 | 160.95138 | 37957 ft | 375 kts | 296° |
| 2026-05-07 05:09 | -31.19437 | 160.89852 | 37958 ft | 375 kts | 296° |
| 2026-05-07 05:10 | -31.16835 | 160.84573 | 37960 ft | 375 kts | 296° |
| 2026-05-07 05:10 | -31.14230 | 160.79295 | 37958 ft | 375 kts | 296° |
| 2026-05-07 05:11 | -31.11627 | 160.74029 | 37956 ft | 375 kts | 296° |
| 2026-05-07 05:11 | -31.09020 | 160.68763 | 37956 ft | 374 kts | 296° |
| 2026-05-07 05:12 | -31.06413 | 160.63503 | 37955 ft | 374 kts | 296° |
| 2026-05-07 05:12 | -31.03805 | 160.58249 | 37954 ft | 374 kts | 296° |
| 2026-05-07 05:13 | -31.01195 | 160.52998 | 37955 ft | 374 kts | 296° |
| 2026-05-07 05:13 | -30.98585 | 160.47755 | 37960 ft | 374 kts | 296° |
| 2026-05-07 05:14 | -30.95976 | 160.42519 | 37955 ft | 374 kts | 296° |
| 2026-05-07 05:14 | -30.93363 | 160.37283 | 37945 ft | 374 kts | 296° |
| 2026-05-07 05:15 | -30.90767 | 160.32089 | 37937 ft | 374 kts | 296° |
| 2026-05-07 05:15 | -30.88154 | 160.26867 | 37946 ft | 373 kts | 296° |
| 2026-05-07 05:16 | -30.85538 | 160.21646 | 37978 ft | 373 kts | 296° |
| 2026-05-07 05:16 | -30.82905 | 160.16399 | 37976 ft | 373 kts | 296° |
| 2026-05-07 05:17 | -30.80300 | 160.11214 | 37969 ft | 373 kts | 296° |
| 2026-05-07 05:17 | -30.77682 | 160.06010 | 37947 ft | 373 kts | 297° |
| 2026-05-07 05:18 | -30.75062 | 160.00808 | 37940 ft | 373 kts | 297° |
| 2026-05-07 05:18 | -30.72460 | 159.95651 | 37938 ft | 373 kts | 297° |
| 2026-05-07 05:19 | -30.69832 | 159.90447 | 37964 ft | 372 kts | 297° |
| 2026-05-07 05:19 | -30.67211 | 159.85265 | 37961 ft | 372 kts | 297° |
| 2026-05-07 05:20 | -30.64588 | 159.80088 | 37976 ft | 372 kts | 297° |
| 2026-05-07 05:20 | -30.61965 | 159.74916 | 37964 ft | 371 kts | 297° |
| 2026-05-07 05:21 | -30.58030 | 159.67168 | 37944 ft | 371 kts | 297° |
| 2026-05-07 05:22 | -30.55406 | 159.62012 | 37946 ft | 371 kts | 297° |
| 2026-05-07 05:22 | -30.52783 | 159.56863 | 37969 ft | 370 kts | 297° |
| 2026-05-07 05:23 | -30.50157 | 159.51716 | 37974 ft | 370 kts | 297° |
| 2026-05-07 05:23 | -30.47534 | 159.46581 | 37967 ft | 370 kts | 297° |
| 2026-05-07 05:24 | -30.44923 | 159.41476 | 37958 ft | 370 kts | 297° |
| 2026-05-07 05:24 | -30.42298 | 159.36350 | 37948 ft | 370 kts | 297° |
| 2026-05-07 05:25 | -30.39671 | 159.31228 | 37956 ft | 370 kts | 297° |
| 2026-05-07 05:25 | -30.37043 | 159.26111 | 37945 ft | 369 kts | 297° |
| 2026-05-07 05:26 | -30.34417 | 159.21002 | 37961 ft | 369 kts | 297° |
| 2026-05-07 05:26 | -30.31788 | 159.15896 | 37962 ft | 369 kts | 297° |
| 2026-05-07 05:27 | -30.29174 | 159.10824 | 37955 ft | 369 kts | 297° |
| 2026-05-07 05:27 | -30.26544 | 159.05728 | 37952 ft | 369 kts | 297° |
| 2026-05-07 05:28 | -30.23915 | 159.00642 | 37965 ft | 368 kts | 297° |
| 2026-05-07 05:28 | -30.21729 | 158.96416 | 37964 ft | 368 kts | 297° |
| 2026-05-07 05:29 | -30.19097 | 158.91336 | 37963 ft | 368 kts | 297° |
| 2026-05-07 05:29 | -30.16467 | 158.86266 | 37963 ft | 368 kts | 297° |
| 2026-05-07 05:30 | -30.13838 | 158.81201 | 37958 ft | 367 kts | 297° |
| 2026-05-07 05:30 | -30.11206 | 158.76140 | 37954 ft | 367 kts | 297° |
| 2026-05-07 05:31 | -30.08573 | 158.71083 | 37956 ft | 367 kts | 297° |
| 2026-05-07 05:31 | -30.05941 | 158.66034 | 37970 ft | 367 kts | 297° |
| 2026-05-07 05:32 | -30.03309 | 158.60993 | 37963 ft | 367 kts | 297° |
| 2026-05-07 05:32 | -30.00694 | 158.55989 | 37952 ft | 366 kts | 297° |
| 2026-05-07 05:33 | -29.98061 | 158.50958 | 37961 ft | 366 kts | 297° |
| 2026-05-07 05:33 | -29.95425 | 158.45926 | 37960 ft | 366 kts | 297° |
| 2026-05-07 05:34 | -29.92793 | 158.40910 | 37964 ft | 366 kts | 297° |
| 2026-05-07 05:34 | -29.90159 | 158.35894 | 37950 ft | 366 kts | 297° |
| 2026-05-07 05:35 | -29.87524 | 158.30883 | 37951 ft | 366 kts | 297° |
| 2026-05-07 05:35 | -29.84887 | 158.25877 | 37959 ft | 365 kts | 297° |
| 2026-05-07 05:36 | -29.82247 | 158.20868 | 37958 ft | 365 kts | 297° |
| 2026-05-07 05:36 | -29.79608 | 158.15870 | 37961 ft | 365 kts | 297° |
| 2026-05-07 05:37 | -29.76966 | 158.10871 | 37956 ft | 365 kts | 297° |
| 2026-05-07 05:37 | -29.74341 | 158.05911 | 37951 ft | 365 kts | 297° |
| 2026-05-07 05:38 | -29.71696 | 158.00918 | 37962 ft | 365 kts | 297° |
| 2026-05-07 05:38 | -29.69050 | 157.95931 | 37956 ft | 365 kts | 297° |
| 2026-05-07 05:39 | -29.66404 | 157.90949 | 37957 ft | 365 kts | 297° |
| 2026-05-07 05:39 | -29.63758 | 157.85974 | 37961 ft | 365 kts | 297° |
| 2026-05-07 05:40 | -29.61129 | 157.81036 | 37960 ft | 364 kts | 297° |
| 2026-05-07 05:40 | -29.58480 | 157.76068 | 37965 ft | 364 kts | 297° |
| 2026-05-07 05:41 | -29.55816 | 157.71075 | 37959 ft | 364 kts | 297° |
| 2026-05-07 05:41 | -29.53167 | 157.66119 | 37960 ft | 364 kts | 297° |
| 2026-05-07 05:42 | -29.50532 | 157.61194 | 37959 ft | 364 kts | 297° |
| 2026-05-07 05:42 | -29.47880 | 157.56244 | 37960 ft | 364 kts | 297° |
| 2026-05-07 05:43 | -29.45228 | 157.51299 | 37963 ft | 364 kts | 297° |
| 2026-05-07 05:43 | -29.42573 | 157.46355 | 37962 ft | 364 kts | 297° |
| 2026-05-07 05:44 | -29.39915 | 157.41412 | 37965 ft | 364 kts | 297° |
| 2026-05-07 05:44 | -29.37259 | 157.36478 | 37963 ft | 364 kts | 297° |
| 2026-05-07 05:45 | -29.34601 | 157.31546 | 37968 ft | 363 kts | 297° |
| 2026-05-07 05:45 | -29.31943 | 157.26621 | 37961 ft | 363 kts | 297° |
| 2026-05-07 05:46 | -29.29283 | 157.21696 | 37962 ft | 363 kts | 297° |
| 2026-05-07 05:46 | -29.26622 | 157.16778 | 37965 ft | 363 kts | 297° |
| 2026-05-07 05:47 | -29.23976 | 157.11890 | 37964 ft | 363 kts | 297° |
| 2026-05-07 05:47 | -29.21316 | 157.06985 | 37965 ft | 363 kts | 297° |
| 2026-05-07 05:48 | -29.18654 | 157.02082 | 37967 ft | 362 kts | 297° |
| 2026-05-07 05:48 | -29.15990 | 156.97180 | 37967 ft | 362 kts | 297° |
| 2026-05-07 05:49 | -29.13330 | 156.92288 | 37967 ft | 362 kts | 298° |
| 2026-05-07 05:49 | -29.10666 | 156.87395 | 37967 ft | 362 kts | 298° |
| 2026-05-07 05:50 | -29.08005 | 156.82511 | 37968 ft | 362 kts | 298° |
| 2026-05-07 05:50 | -29.05336 | 156.77618 | 37972 ft | 362 kts | 298° |
| 2026-05-07 05:51 | -29.02675 | 156.72746 | 37970 ft | 362 kts | 298° |
| 2026-05-07 05:51 | -29.00190 | 156.67777 | 37967 ft | 359 kts | 292° |
| 2026-05-07 05:52 | -28.98222 | 156.62574 | 37972 ft | 358 kts | 291° |
| 2026-05-07 05:52 | -28.96249 | 156.57336 | 37972 ft | 358 kts | 291° |
| 2026-05-07 05:53 | -28.94265 | 156.52111 | 37977 ft | 358 kts | 291° |
| 2026-05-07 05:53 | -28.92278 | 156.46895 | 37970 ft | 358 kts | 291° |
| 2026-05-07 05:54 | -28.90289 | 156.41684 | 37975 ft | 358 kts | 291° |
| 2026-05-07 05:54 | -28.88309 | 156.36504 | 37974 ft | 358 kts | 291° |
| 2026-05-07 05:55 | -28.86316 | 156.31298 | 37974 ft | 358 kts | 291° |
| 2026-05-07 05:55 | -28.84324 | 156.26100 | 37974 ft | 358 kts | 291° |
| 2026-05-07 05:56 | -28.82330 | 156.20905 | 37977 ft | 357 kts | 291° |
| 2026-05-07 05:56 | -28.80333 | 156.15710 | 37978 ft | 357 kts | 291° |
| 2026-05-07 05:57 | -28.78337 | 156.10523 | 37978 ft | 357 kts | 291° |
| 2026-05-07 05:57 | -28.76339 | 156.05339 | 37979 ft | 357 kts | 291° |
| 2026-05-07 05:58 | -28.74351 | 156.00189 | 37983 ft | 357 kts | 291° |
| 2026-05-07 05:58 | -28.72350 | 155.95011 | 37979 ft | 357 kts | 291° |
| 2026-05-07 05:59 | -28.70347 | 155.89834 | 37975 ft | 357 kts | 291° |
| 2026-05-07 05:59 | -28.68343 | 155.84663 | 37982 ft | 357 kts | 292° |
| 2026-05-07 06:00 | -28.66339 | 155.79499 | 37980 ft | 357 kts | 292° |
| 2026-05-07 06:00 | -28.64331 | 155.74330 | 37977 ft | 356 kts | 292° |
| 2026-05-07 06:01 | -28.62323 | 155.69171 | 37975 ft | 356 kts | 292° |
| 2026-05-07 06:01 | -28.60315 | 155.64018 | 37977 ft | 356 kts | 292° |
| 2026-05-07 06:02 | -28.58304 | 155.58864 | 37979 ft | 356 kts | 292° |
| 2026-05-07 06:02 | -28.56292 | 155.53715 | 37978 ft | 356 kts | 292° |
| 2026-05-07 06:03 | -28.54290 | 155.48596 | 37979 ft | 356 kts | 292° |
| 2026-05-07 06:03 | -28.52275 | 155.43452 | 37980 ft | 356 kts | 292° |
| 2026-05-07 06:04 | -28.50245 | 155.38278 | 37976 ft | 356 kts | 292° |
| 2026-05-07 06:04 | -28.48239 | 155.33171 | 37977 ft | 356 kts | 292° |
| 2026-05-07 06:05 | -28.46221 | 155.28040 | 37984 ft | 356 kts | 292° |
| 2026-05-07 06:05 | -28.44199 | 155.22905 | 37988 ft | 355 kts | 292° |
| 2026-05-07 06:06 | -28.42177 | 155.17779 | 37978 ft | 356 kts | 292° |
| 2026-05-07 06:06 | -28.40152 | 155.12650 | 37981 ft | 356 kts | 292° |
| 2026-05-07 06:07 | -28.38123 | 155.07520 | 37978 ft | 356 kts | 292° |
| 2026-05-07 06:07 | -28.36095 | 155.02397 | 37981 ft | 356 kts | 292° |
| 2026-05-07 06:08 | -28.34076 | 154.97305 | 37986 ft | 356 kts | 292° |
| 2026-05-07 06:08 | -28.32042 | 154.92182 | 37985 ft | 356 kts | 292° |
| 2026-05-07 06:09 | -28.30008 | 154.87064 | 37986 ft | 356 kts | 292° |
| 2026-05-07 06:09 | -28.27971 | 154.81948 | 37983 ft | 356 kts | 292° |
| 2026-05-07 06:10 | -28.25932 | 154.76832 | 37987 ft | 356 kts | 292° |
| 2026-05-07 06:10 | -28.23891 | 154.71719 | 37988 ft | 356 kts | 292° |
| 2026-05-07 06:11 | -28.21847 | 154.66605 | 37989 ft | 356 kts | 292° |
| 2026-05-07 06:11 | -28.19802 | 154.61492 | 37986 ft | 356 kts | 292° |
| 2026-05-07 06:12 | -28.17766 | 154.56411 | 37986 ft | 356 kts | 292° |
| 2026-05-07 06:12 | -28.15717 | 154.51302 | 37984 ft | 356 kts | 292° |
| 2026-05-07 06:13 | -28.13664 | 154.46193 | 37985 ft | 356 kts | 292° |
| 2026-05-07 06:13 | -28.11607 | 154.41080 | 37975 ft | 356 kts | 292° |
| 2026-05-07 06:14 | -28.09550 | 154.35972 | 37971 ft | 356 kts | 292° |
| 2026-05-07 06:14 | -28.07490 | 154.30864 | 37993 ft | 356 kts | 292° |
| 2026-05-07 06:15 | -28.05428 | 154.25757 | 37998 ft | 356 kts | 292° |
| 2026-05-07 06:15 | -28.03365 | 154.20656 | 37996 ft | 357 kts | 292° |
| 2026-05-07 06:16 | -28.01297 | 154.15548 | 37978 ft | 357 kts | 292° |
| 2026-05-07 06:16 | -27.99228 | 154.10444 | 37972 ft | 357 kts | 292° |
| 2026-05-07 06:17 | -27.97170 | 154.05374 | 37992 ft | 357 kts | 292° |
| 2026-05-07 06:17 | -27.95096 | 154.00271 | 37996 ft | 357 kts | 292° |
| 2026-05-07 06:18 | -27.93358 | 153.96000 | 37988 ft | 357 kts | 292° |
| 2026-05-07 06:18 | -27.91294 | 153.90933 | 37998 ft | 357 kts | 292° |
| 2026-05-07 06:19 | -27.89202 | 153.85801 | 37997 ft | 357 kts | 292° |
| 2026-05-07 06:19 | -27.86860 | 153.80882 | 37993 ft | 359 kts | 298° |
| 2026-05-07 06:20 | -27.83991 | 153.76236 | 37978 ft | 362 kts | 303° |
| 2026-05-07 06:20 | -27.80722 | 153.71877 | 37995 ft | 364 kts | 304° |
| 2026-05-07 06:21 | -27.77446 | 153.67526 | 37996 ft | 364 kts | 304° |
| 2026-05-07 06:21 | -27.74172 | 153.63175 | 37995 ft | 364 kts | 304° |
| 2026-05-07 06:22 | -27.70895 | 153.58827 | 37996 ft | 364 kts | 304° |
| 2026-05-07 06:22 | -27.65967 | 153.52300 | 37999 ft | 364 kts | 304° |
| 2026-05-07 06:23 | -27.62683 | 153.47956 | 38002 ft | 364 kts | 304° |
| 2026-05-07 06:23 | -27.59392 | 153.43608 | 38005 ft | 365 kts | 304° |
| 2026-05-07 06:24 | -27.56099 | 153.39260 | 38006 ft | 365 kts | 304° |
| 2026-05-07 06:24 | -27.52801 | 153.34911 | 38007 ft | 365 kts | 305° |
| 2026-05-07 06:25 | -27.49485 | 153.30573 | 37996 ft | 365 kts | 305° |
| 2026-05-07 06:25 | -27.46148 | 153.26262 | 37994 ft | 365 kts | 305° |
| 2026-05-07 06:26 | -27.42812 | 153.21949 | 37995 ft | 365 kts | 305° |
| 2026-05-07 06:26 | -27.39477 | 153.17635 | 37993 ft | 365 kts | 305° |
| 2026-05-07 06:27 | -27.36163 | 153.13352 | 37993 ft | 365 kts | 305° |
| 2026-05-07 06:27 | -27.32956 | 153.08948 | 37994 ft | 364 kts | 303° |
| 2026-05-07 06:28 | -27.29788 | 153.04503 | 37998 ft | 364 kts | 303° |
| 2026-05-07 06:28 | -27.26599 | 153.00077 | 38003 ft | 364 kts | 304° |
| 2026-05-07 06:29 | -27.23400 | 152.95657 | 38010 ft | 364 kts | 304° |
| 2026-05-07 06:29 | -27.20203 | 152.91249 | 38016 ft | 364 kts | 304° |
| 2026-05-07 06:30 | -27.17005 | 152.86841 | 38023 ft | 363 kts | 304° |
| 2026-05-07 06:30 | -27.13815 | 152.82451 | 38018 ft | 363 kts | 304° |
| 2026-05-07 06:31 | -27.10623 | 152.78060 | 38032 ft | 363 kts | 304° |
| 2026-05-07 06:31 | -27.07446 | 152.73696 | 38032 ft | 363 kts | 304° |
| 2026-05-07 06:32 | -27.04242 | 152.69297 | 38036 ft | 364 kts | 304° |
| 2026-05-07 06:32 | -27.01034 | 152.64896 | 38041 ft | 365 kts | 304° |
| 2026-05-07 06:33 | -26.97821 | 152.60494 | 38046 ft | 364 kts | 304° |
| 2026-05-07 06:33 | -26.94609 | 152.56099 | 38042 ft | 365 kts | 304° |
| 2026-05-07 06:34 | -26.91389 | 152.51696 | 38048 ft | 365 kts | 304° |
| 2026-05-07 06:34 | -26.88190 | 152.47326 | 38049 ft | 365 kts | 304° |
| 2026-05-07 06:35 | -26.84967 | 152.42931 | 38045 ft | 365 kts | 304° |
| 2026-05-07 06:35 | -26.81748 | 152.38543 | 38054 ft | 365 kts | 304° |
| 2026-05-07 06:36 | -26.78530 | 152.34161 | 38056 ft | 364 kts | 304° |
| 2026-05-07 06:36 | -26.75316 | 152.29789 | 38063 ft | 364 kts | 304° |
| 2026-05-07 06:37 | -26.72100 | 152.25409 | 38056 ft | 365 kts | 304° |
| 2026-05-07 06:37 | -26.68864 | 152.21019 | 38069 ft | 366 kts | 304° |
| 2026-05-07 06:38 | -26.65625 | 152.16626 | 38084 ft | 366 kts | 304° |
| 2026-05-07 06:38 | -26.62379 | 152.12231 | 38084 ft | 366 kts | 304° |
| 2026-05-07 06:39 | -26.59135 | 152.07839 | 38078 ft | 367 kts | 304° |
| 2026-05-07 06:39 | -26.55888 | 152.03446 | 38074 ft | 367 kts | 304° |
| 2026-05-07 06:40 | -26.52640 | 151.99056 | 38074 ft | 366 kts | 304° |
| 2026-05-07 06:40 | -26.49391 | 151.94671 | 38068 ft | 366 kts | 304° |
| 2026-05-07 06:41 | -26.46161 | 151.90319 | 38068 ft | 366 kts | 304° |
| 2026-05-07 06:41 | -26.42906 | 151.85950 | 38067 ft | 366 kts | 304° |
| 2026-05-07 06:42 | -26.39654 | 151.81585 | 38069 ft | 366 kts | 304° |
| 2026-05-07 06:42 | -26.36397 | 151.77216 | 38074 ft | 366 kts | 304° |
| 2026-05-07 06:43 | -26.33138 | 151.72854 | 38072 ft | 366 kts | 304° |
| 2026-05-07 06:43 | -26.29875 | 151.68486 | 38069 ft | 367 kts | 304° |
| 2026-05-07 06:44 | -26.26608 | 151.64116 | 38078 ft | 367 kts | 304° |
| 2026-05-07 06:44 | -26.23342 | 151.59753 | 38075 ft | 367 kts | 304° |
| 2026-05-07 06:45 | -26.20074 | 151.55392 | 38072 ft | 366 kts | 304° |
| 2026-05-07 06:45 | -26.16806 | 151.51037 | 38073 ft | 366 kts | 304° |
| 2026-05-07 06:46 | -26.13533 | 151.46677 | 38077 ft | 366 kts | 304° |
| 2026-05-07 06:46 | -26.10285 | 151.42356 | 38074 ft | 366 kts | 304° |
| 2026-05-07 06:47 | -26.07012 | 151.38005 | 38075 ft | 366 kts | 304° |
| 2026-05-07 06:47 | -26.03739 | 151.33659 | 38076 ft | 366 kts | 304° |
| 2026-05-07 06:48 | -26.00469 | 151.29320 | 38077 ft | 366 kts | 304° |
| 2026-05-07 06:48 | -25.97197 | 151.24981 | 38078 ft | 366 kts | 305° |
| 2026-05-07 06:49 | -25.93923 | 151.20646 | 38072 ft | 366 kts | 305° |
| 2026-05-07 06:49 | -25.90653 | 151.16320 | 38071 ft | 366 kts | 305° |
| 2026-05-07 06:50 | -25.87383 | 151.11996 | 38076 ft | 366 kts | 305° |
| 2026-05-07 06:50 | -25.84127 | 151.07697 | 38073 ft | 366 kts | 305° |
| 2026-05-07 06:51 | -25.80847 | 151.03369 | 38074 ft | 366 kts | 305° |
| 2026-05-07 06:51 | -25.77563 | 150.99041 | 38083 ft | 366 kts | 305° |
| 2026-05-07 06:52 | -25.74280 | 150.94717 | 38080 ft | 366 kts | 305° |
| 2026-05-07 06:52 | -25.70991 | 150.90390 | 38087 ft | 367 kts | 305° |
| 2026-05-07 06:53 | -25.67700 | 150.86067 | 38084 ft | 366 kts | 305° |
| 2026-05-07 06:53 | -25.64415 | 150.81753 | 38079 ft | 366 kts | 305° |
| 2026-05-07 06:54 | -25.61149 | 150.77469 | 38082 ft | 366 kts | 305° |
| 2026-05-07 06:54 | -25.57862 | 150.73159 | 38085 ft | 366 kts | 305° |
| 2026-05-07 06:55 | -25.54575 | 150.68855 | 38087 ft | 366 kts | 305° |
| 2026-05-07 06:55 | -25.51283 | 150.64548 | 38091 ft | 366 kts | 305° |
| 2026-05-07 06:56 | -25.47988 | 150.60242 | 38087 ft | 366 kts | 305° |
| 2026-05-07 06:56 | -25.44695 | 150.55943 | 38089 ft | 366 kts | 305° |
| 2026-05-07 06:57 | -25.41401 | 150.51646 | 38090 ft | 366 kts | 305° |
| 2026-05-07 06:57 | -25.38103 | 150.47347 | 38089 ft | 366 kts | 305° |
| 2026-05-07 06:58 | -25.34801 | 150.43047 | 38107 ft | 366 kts | 305° |
| 2026-05-07 06:58 | -25.31504 | 150.38757 | 38082 ft | 366 kts | 305° |
| 2026-05-07 06:59 | -25.28203 | 150.34465 | 38074 ft | 367 kts | 305° |
| 2026-05-07 06:59 | -25.24913 | 150.30206 | 38077 ft | 366 kts | 305° |
| 2026-05-07 07:00 | -25.21610 | 150.25930 | 38090 ft | 366 kts | 305° |
| 2026-05-07 07:00 | -25.18304 | 150.21651 | 38095 ft | 366 kts | 305° |
| 2026-05-07 07:01 | -25.14994 | 150.17369 | 38081 ft | 367 kts | 305° |
| 2026-05-07 07:01 | -25.11681 | 150.13088 | 38092 ft | 366 kts | 305° |
| 2026-05-07 07:02 | -25.08366 | 150.08811 | 38080 ft | 366 kts | 305° |
| 2026-05-07 07:02 | -25.05053 | 150.04537 | 38091 ft | 366 kts | 305° |
| 2026-05-07 07:03 | -25.02299 | 150.00988 | 38084 ft | 366 kts | 305° |
| 2026-05-07 07:03 | -24.98447 | 149.96030 | 38091 ft | 366 kts | 306° |
| 2026-05-07 07:04 | -24.95667 | 149.92454 | 38086 ft | 367 kts | 306° |
| 2026-05-07 07:04 | -24.92346 | 149.88188 | 38087 ft | 366 kts | 306° |
| 2026-05-07 07:05 | -24.89033 | 149.83933 | 38085 ft | 366 kts | 306° |
| 2026-05-07 07:05 | -24.85710 | 149.79670 | 38090 ft | 367 kts | 306° |
| 2026-05-07 07:06 | -24.82401 | 149.75430 | 38085 ft | 367 kts | 306° |
| 2026-05-07 07:06 | -24.79068 | 149.71164 | 38089 ft | 367 kts | 306° |
| 2026-05-07 07:07 | -24.75738 | 149.66903 | 38087 ft | 367 kts | 306° |
| 2026-05-07 07:07 | -24.72408 | 149.62647 | 38087 ft | 367 kts | 306° |
| 2026-05-07 07:08 | -24.69078 | 149.58395 | 38083 ft | 367 kts | 306° |
| 2026-05-07 07:08 | -24.65739 | 149.54136 | 38086 ft | 367 kts | 306° |
| 2026-05-07 07:09 | -24.62408 | 149.49890 | 38085 ft | 367 kts | 306° |
| 2026-05-07 07:09 | -24.59068 | 149.45635 | 38087 ft | 367 kts | 306° |
| 2026-05-07 07:10 | -24.55726 | 149.41383 | 38082 ft | 368 kts | 306° |
| 2026-05-07 07:10 | -24.52406 | 149.37163 | 38085 ft | 368 kts | 306° |
| 2026-05-07 07:11 | -24.49060 | 149.32913 | 38086 ft | 368 kts | 306° |
| 2026-05-07 07:11 | -24.45712 | 149.28665 | 38086 ft | 368 kts | 306° |
| 2026-05-07 07:12 | -24.42363 | 149.24418 | 38085 ft | 368 kts | 306° |
| 2026-05-07 07:12 | -24.39006 | 149.20167 | 38088 ft | 368 kts | 306° |
| 2026-05-07 07:13 | -24.35647 | 149.15915 | 38090 ft | 369 kts | 306° |
| 2026-05-07 07:13 | -24.32287 | 149.11666 | 38086 ft | 369 kts | 306° |
| 2026-05-07 07:14 | -24.28922 | 149.07415 | 38088 ft | 369 kts | 306° |
| 2026-05-07 07:14 | -24.25552 | 149.03160 | 38094 ft | 369 kts | 306° |
| 2026-05-07 07:15 | -24.22202 | 148.98936 | 38090 ft | 370 kts | 306° |
| 2026-05-07 07:15 | -24.18828 | 148.94684 | 38095 ft | 370 kts | 306° |
| 2026-05-07 07:16 | -24.15447 | 148.90429 | 38094 ft | 370 kts | 306° |
| 2026-05-07 07:16 | -24.12067 | 148.86177 | 38092 ft | 370 kts | 306° |
| 2026-05-07 07:17 | -24.08683 | 148.81923 | 38094 ft | 370 kts | 306° |
| 2026-05-07 07:17 | -24.05296 | 148.77670 | 38090 ft | 371 kts | 306° |
| 2026-05-07 07:18 | -24.01906 | 148.73417 | 38087 ft | 371 kts | 306° |
| 2026-05-07 07:18 | -23.98510 | 148.69161 | 38083 ft | 371 kts | 306° |
| 2026-05-07 07:19 | -23.95120 | 148.64916 | 38081 ft | 371 kts | 306° |
| 2026-05-07 07:19 | -23.91718 | 148.60659 | 38082 ft | 371 kts | 306° |
| 2026-05-07 07:20 | -23.88314 | 148.56403 | 38077 ft | 371 kts | 306° |
| 2026-05-07 07:20 | -23.84938 | 148.52187 | 38078 ft | 371 kts | 307° |
| 2026-05-07 07:21 | -23.81533 | 148.47938 | 38076 ft | 372 kts | 307° |
| 2026-05-07 07:21 | -23.78130 | 148.43693 | 38074 ft | 372 kts | 307° |
| 2026-05-07 07:22 | -23.74720 | 148.39444 | 38074 ft | 372 kts | 307° |
| 2026-05-07 07:22 | -23.71309 | 148.35197 | 38073 ft | 372 kts | 307° |
| 2026-05-07 07:23 | -23.67893 | 148.30949 | 38072 ft | 373 kts | 307° |
| 2026-05-07 07:23 | -23.64470 | 148.26696 | 38079 ft | 373 kts | 307° |
| 2026-05-07 07:24 | -23.61050 | 148.22449 | 38074 ft | 373 kts | 307° |
| 2026-05-07 07:24 | -23.57623 | 148.18195 | 38065 ft | 373 kts | 307° |
| 2026-05-07 07:25 | -23.52586 | 148.11777 | 38086 ft | 373 kts | 306° |
| 2026-05-07 07:26 | -23.49256 | 148.07447 | 38081 ft | 373 kts | 306° |
| 2026-05-07 07:26 | -23.45914 | 148.03123 | 38071 ft | 373 kts | 306° |
| 2026-05-07 07:27 | -23.42563 | 147.98801 | 38064 ft | 373 kts | 306° |
| 2026-05-07 07:27 | -23.39209 | 147.94478 | 38069 ft | 374 kts | 306° |
| 2026-05-07 07:28 | -23.35851 | 147.90155 | 38073 ft | 374 kts | 306° |
| 2026-05-07 07:28 | -23.32492 | 147.85834 | 38073 ft | 374 kts | 306° |
| 2026-05-07 07:29 | -23.29126 | 147.81510 | 38069 ft | 374 kts | 306° |
| 2026-05-07 07:29 | -23.25763 | 147.77192 | 38068 ft | 374 kts | 306° |
| 2026-05-07 07:30 | -23.22394 | 147.72872 | 38072 ft | 375 kts | 306° |
| 2026-05-07 07:30 | -23.19043 | 147.68576 | 38069 ft | 375 kts | 306° |
| 2026-05-07 07:31 | -23.15668 | 147.64254 | 38068 ft | 375 kts | 306° |
| 2026-05-07 07:31 | -23.12290 | 147.59932 | 38070 ft | 375 kts | 306° |
| 2026-05-07 07:32 | -23.08910 | 147.55612 | 38072 ft | 375 kts | 306° |
| 2026-05-07 07:32 | -23.05532 | 147.51297 | 38062 ft | 375 kts | 306° |
| 2026-05-07 07:33 | -23.02145 | 147.46976 | 38072 ft | 375 kts | 306° |
| 2026-05-07 07:33 | -22.98757 | 147.42656 | 38067 ft | 375 kts | 306° |
| 2026-05-07 07:34 | -22.95369 | 147.38339 | 38068 ft | 376 kts | 306° |
| 2026-05-07 07:34 | -22.91977 | 147.34021 | 38066 ft | 376 kts | 306° |
| 2026-05-07 07:35 | -22.88605 | 147.29730 | 38064 ft | 376 kts | 306° |
| 2026-05-07 07:35 | -22.85204 | 147.25409 | 38069 ft | 377 kts | 306° |
| 2026-05-07 07:36 | -22.81797 | 147.21083 | 38066 ft | 377 kts | 306° |
| 2026-05-07 07:36 | -22.78390 | 147.16761 | 38064 ft | 377 kts | 306° |
| 2026-05-07 07:37 | -22.74979 | 147.12438 | 38061 ft | 377 kts | 306° |
| 2026-05-07 07:37 | -22.71570 | 147.08120 | 38055 ft | 377 kts | 306° |
| 2026-05-07 07:38 | -22.68157 | 147.03800 | 38057 ft | 377 kts | 306° |
| 2026-05-07 07:38 | -22.64759 | 146.99505 | 38055 ft | 377 kts | 307° |
| 2026-05-07 07:39 | -22.61346 | 146.95193 | 38048 ft | 377 kts | 307° |
| 2026-05-07 07:39 | -22.57924 | 146.90873 | 38055 ft | 378 kts | 307° |
| 2026-05-07 07:40 | -22.54503 | 146.86558 | 38049 ft | 378 kts | 307° |
| 2026-05-07 07:40 | -22.51079 | 146.82243 | 38042 ft | 378 kts | 307° |
| 2026-05-07 07:41 | -22.47651 | 146.77926 | 38046 ft | 378 kts | 307° |
| 2026-05-07 07:41 | -22.44218 | 146.73608 | 38052 ft | 379 kts | 307° |
| 2026-05-07 07:42 | -22.40781 | 146.69286 | 38036 ft | 379 kts | 307° |
| 2026-05-07 07:42 | -22.37338 | 146.64961 | 38037 ft | 379 kts | 307° |
| 2026-05-07 07:43 | -22.33920 | 146.60671 | 38040 ft | 379 kts | 307° |
| 2026-05-07 07:43 | -22.30472 | 146.56348 | 38041 ft | 380 kts | 307° |
| 2026-05-07 07:44 | -22.27022 | 146.52027 | 38048 ft | 380 kts | 307° |
| 2026-05-07 07:44 | -22.23572 | 146.47707 | 38056 ft | 380 kts | 307° |
| 2026-05-07 07:45 | -22.20119 | 146.43389 | 38047 ft | 380 kts | 307° |
| 2026-05-07 07:45 | -22.16661 | 146.39067 | 38015 ft | 380 kts | 307° |
| 2026-05-07 07:46 | -22.13200 | 146.34744 | 38016 ft | 381 kts | 307° |
| 2026-05-07 07:46 | -22.09739 | 146.30424 | 38039 ft | 381 kts | 307° |
| 2026-05-07 07:47 | -22.06274 | 146.26105 | 38041 ft | 381 kts | 307° |
| 2026-05-07 07:47 | -22.02798 | 146.21775 | 38037 ft | 381 kts | 307° |
| 2026-05-07 07:48 | -21.99345 | 146.17478 | 38037 ft | 382 kts | 307° |
| 2026-05-07 07:48 | -21.95868 | 146.13153 | 38035 ft | 382 kts | 307° |
| 2026-05-07 07:49 | -21.92386 | 146.08825 | 38034 ft | 382 kts | 307° |
| 2026-05-07 07:49 | -21.88901 | 146.04498 | 38037 ft | 382 kts | 307° |
| 2026-05-07 07:50 | -21.85413 | 146.00171 | 38035 ft | 382 kts | 307° |
| 2026-05-07 07:50 | -21.81927 | 145.95849 | 38035 ft | 383 kts | 307° |
| 2026-05-07 07:51 | -21.78436 | 145.91524 | 38037 ft | 383 kts | 307° |
| 2026-05-07 07:51 | -21.75529 | 145.87927 | 38034 ft | 383 kts | 307° |
| 2026-05-07 07:52 | -21.71444 | 145.82874 | 38034 ft | 383 kts | 307° |
| 2026-05-07 07:52 | -21.68537 | 145.79282 | 38031 ft | 383 kts | 307° |
| 2026-05-07 07:53 | -21.65036 | 145.74959 | 38034 ft | 383 kts | 307° |
| 2026-05-07 07:53 | -21.60964 | 145.69934 | 38031 ft | 384 kts | 307° |
| 2026-05-07 07:54 | -21.58024 | 145.66310 | 38029 ft | 384 kts | 307° |
| 2026-05-07 07:54 | -21.54511 | 145.61984 | 38030 ft | 384 kts | 307° |
| 2026-05-07 07:55 | -21.51018 | 145.57684 | 38027 ft | 384 kts | 307° |
| 2026-05-07 07:55 | -21.47506 | 145.53364 | 38027 ft | 384 kts | 307° |
| 2026-05-07 07:56 | -21.43986 | 145.49039 | 38027 ft | 385 kts | 308° |
| 2026-05-07 07:56 | -21.40462 | 145.44711 | 38025 ft | 385 kts | 308° |
| 2026-05-07 07:57 | -21.36938 | 145.40388 | 38017 ft | 385 kts | 308° |
| 2026-05-07 07:57 | -21.33407 | 145.36059 | 38023 ft | 385 kts | 308° |
| 2026-05-07 07:58 | -21.29878 | 145.31736 | 38021 ft | 385 kts | 308° |
| 2026-05-07 07:58 | -21.26370 | 145.27442 | 38020 ft | 386 kts | 308° |
| 2026-05-07 07:59 | -21.22833 | 145.23116 | 38025 ft | 386 kts | 308° |
| 2026-05-07 07:59 | -21.19296 | 145.18793 | 38024 ft | 386 kts | 308° |
| 2026-05-07 08:00 | -21.15754 | 145.14468 | 38025 ft | 386 kts | 308° |
| 2026-05-07 08:00 | -21.12212 | 145.10146 | 38022 ft | 386 kts | 308° |
| 2026-05-07 08:01 | -21.08672 | 145.05829 | 38021 ft | 386 kts | 308° |
| 2026-05-07 08:01 | -21.05126 | 145.01509 | 38021 ft | 386 kts | 308° |
| 2026-05-07 08:02 | -21.01573 | 144.97185 | 38018 ft | 386 kts | 308° |
| 2026-05-07 08:02 | -20.98022 | 144.92866 | 38017 ft | 386 kts | 308° |
| 2026-05-07 08:03 | -20.94492 | 144.88575 | 38023 ft | 386 kts | 308° |
| 2026-05-07 08:03 | -20.90938 | 144.84259 | 38022 ft | 387 kts | 308° |
| 2026-05-07 08:04 | -20.87380 | 144.79941 | 38013 ft | 387 kts | 308° |
| 2026-05-07 08:04 | -20.83820 | 144.75625 | 38016 ft | 387 kts | 308° |
| 2026-05-07 08:05 | -20.80261 | 144.71312 | 38019 ft | 387 kts | 308° |
| 2026-05-07 08:05 | -20.76696 | 144.66996 | 38021 ft | 387 kts | 308° |
| 2026-05-07 08:06 | -20.73131 | 144.62683 | 38016 ft | 388 kts | 308° |
| 2026-05-07 08:06 | -20.69555 | 144.58361 | 38018 ft | 388 kts | 308° |
| 2026-05-07 08:07 | -20.65976 | 144.54036 | 38019 ft | 389 kts | 308° |
| 2026-05-07 08:07 | -20.62395 | 144.49712 | 38023 ft | 389 kts | 308° |
| 2026-05-07 08:08 | -20.58810 | 144.45387 | 38024 ft | 389 kts | 308° |
| 2026-05-07 08:08 | -20.55221 | 144.41059 | 38020 ft | 389 kts | 308° |
| 2026-05-07 08:09 | -20.51616 | 144.36734 | 38016 ft | 390 kts | 308° |
| 2026-05-07 08:09 | -20.48034 | 144.32439 | 38014 ft | 390 kts | 308° |
| 2026-05-07 08:10 | -20.44431 | 144.28114 | 38012 ft | 390 kts | 308° |
| 2026-05-07 08:10 | -20.40829 | 144.23790 | 38026 ft | 390 kts | 308° |
| 2026-05-07 08:11 | -20.37219 | 144.19464 | 38023 ft | 390 kts | 308° |
| 2026-05-07 08:11 | -20.33604 | 144.15137 | 38024 ft | 391 kts | 308° |
| 2026-05-07 08:12 | -20.29991 | 144.10813 | 38020 ft | 391 kts | 308° |
| 2026-05-07 08:12 | -20.26370 | 144.06484 | 38017 ft | 391 kts | 308° |
| 2026-05-07 08:13 | -20.22748 | 144.02158 | 38011 ft | 391 kts | 309° |
| 2026-05-07 08:13 | -20.19125 | 143.97833 | 38021 ft | 391 kts | 309° |
| 2026-05-07 08:14 | -20.15498 | 143.93507 | 38014 ft | 391 kts | 309° |
| 2026-05-07 08:14 | -20.11890 | 143.89207 | 38015 ft | 392 kts | 309° |
| 2026-05-07 08:15 | -20.08261 | 143.84884 | 38011 ft | 392 kts | 309° |
| 2026-05-07 08:15 | -20.04626 | 143.80558 | 38012 ft | 392 kts | 309° |
| 2026-05-07 08:16 | -20.00989 | 143.76234 | 38010 ft | 392 kts | 309° |
| 2026-05-07 08:16 | -19.97350 | 143.71911 | 38006 ft | 392 kts | 309° |
| 2026-05-07 08:17 | -19.93705 | 143.67582 | 38007 ft | 393 kts | 309° |
| 2026-05-07 08:17 | -19.90055 | 143.63252 | 38006 ft | 393 kts | 309° |
| 2026-05-07 08:18 | -19.86405 | 143.58925 | 38003 ft | 393 kts | 309° |
| 2026-05-07 08:18 | -19.82753 | 143.54597 | 38001 ft | 394 kts | 309° |
| 2026-05-07 08:19 | -19.79095 | 143.50267 | 38002 ft | 394 kts | 309° |
| 2026-05-07 08:19 | -19.75429 | 143.45933 | 37986 ft | 394 kts | 309° |
| 2026-05-07 08:20 | -19.71768 | 143.41605 | 37977 ft | 394 kts | 309° |
| 2026-05-07 08:20 | -19.68105 | 143.37277 | 37983 ft | 394 kts | 309° |
| 2026-05-07 08:21 | -19.64459 | 143.32975 | 38001 ft | 394 kts | 309° |
| 2026-05-07 08:21 | -19.60786 | 143.28643 | 37993 ft | 395 kts | 309° |
| 2026-05-07 08:22 | -19.57111 | 143.24311 | 37967 ft | 395 kts | 309° |
| 2026-05-07 08:22 | -19.53431 | 143.19975 | 37961 ft | 396 kts | 309° |
| 2026-05-07 08:23 | -19.49743 | 143.15636 | 37986 ft | 396 kts | 309° |
| 2026-05-07 08:23 | -19.46058 | 143.11302 | 37982 ft | 396 kts | 309° |
| 2026-05-07 08:24 | -19.42363 | 143.06960 | 37973 ft | 397 kts | 309° |
| 2026-05-07 08:24 | -19.38662 | 143.02615 | 37975 ft | 397 kts | 309° |
| 2026-05-07 08:25 | -19.34966 | 142.98277 | 37959 ft | 397 kts | 309° |
| 2026-05-07 08:25 | -19.31263 | 142.93936 | 37967 ft | 397 kts | 309° |
| 2026-05-07 08:26 | -19.25710 | 142.87430 | 37964 ft | 397 kts | 309° |
| 2026-05-07 08:26 | -19.22021 | 142.83113 | 37960 ft | 398 kts | 309° |
| 2026-05-07 08:27 | -19.18309 | 142.78771 | 37964 ft | 398 kts | 309° |
| 2026-05-07 08:27 | -19.14592 | 142.74427 | 37958 ft | 398 kts | 309° |
| 2026-05-07 08:28 | -19.10876 | 142.70087 | 37952 ft | 398 kts | 309° |
| 2026-05-07 08:28 | -19.07153 | 142.65742 | 37953 ft | 399 kts | 309° |
| 2026-05-07 08:29 | -19.03423 | 142.61393 | 37949 ft | 399 kts | 309° |
| 2026-05-07 08:29 | -18.99689 | 142.57041 | 37948 ft | 399 kts | 309° |
| 2026-05-07 08:30 | -18.95955 | 142.52693 | 37944 ft | 399 kts | 309° |
| 2026-05-07 08:30 | -18.92248 | 142.48379 | 37946 ft | 399 kts | 309° |
| 2026-05-07 08:31 | -18.88512 | 142.44035 | 37947 ft | 400 kts | 309° |
| 2026-05-07 08:31 | -18.84771 | 142.39687 | 37945 ft | 400 kts | 309° |
| 2026-05-07 08:32 | -18.81027 | 142.35340 | 37944 ft | 400 kts | 309° |
| 2026-05-07 08:32 | -18.77273 | 142.30984 | 37944 ft | 401 kts | 309° |
| 2026-05-07 08:33 | -18.73515 | 142.26627 | 37941 ft | 401 kts | 309° |
| 2026-05-07 08:33 | -18.69759 | 142.22275 | 37944 ft | 401 kts | 309° |
| 2026-05-07 08:34 | -18.65996 | 142.17917 | 37942 ft | 401 kts | 309° |
| 2026-05-07 08:34 | -18.62258 | 142.13593 | 37939 ft | 402 kts | 309° |
| 2026-05-07 08:35 | -18.58492 | 142.09239 | 37939 ft | 402 kts | 309° |
| 2026-05-07 08:35 | -18.54725 | 142.04886 | 37939 ft | 402 kts | 309° |
| 2026-05-07 08:36 | -18.50950 | 142.00528 | 37939 ft | 402 kts | 309° |
| 2026-05-07 08:36 | -18.47171 | 141.96167 | 37938 ft | 402 kts | 309° |
| 2026-05-07 08:37 | -18.43391 | 141.91809 | 37939 ft | 403 kts | 309° |
| 2026-05-07 08:37 | -18.39637 | 141.87483 | 37936 ft | 403 kts | 309° |
| 2026-05-07 08:38 | -18.35856 | 141.83130 | 37938 ft | 403 kts | 309° |
| 2026-05-07 08:38 | -18.32073 | 141.78777 | 37934 ft | 403 kts | 309° |
| 2026-05-07 08:39 | -18.28290 | 141.74428 | 37934 ft | 403 kts | 309° |
| 2026-05-07 08:39 | -18.24497 | 141.70070 | 37936 ft | 403 kts | 309° |
| 2026-05-07 08:40 | -18.20708 | 141.65720 | 37940 ft | 403 kts | 309° |
| 2026-05-07 08:40 | -18.16915 | 141.61368 | 37932 ft | 404 kts | 309° |
| 2026-05-07 08:41 | -18.13143 | 141.57043 | 37931 ft | 404 kts | 309° |
| 2026-05-07 08:41 | -18.09961 | 141.53398 | 37934 ft | 404 kts | 309° |
| 2026-05-07 08:42 | -18.06159 | 141.49043 | 37940 ft | 404 kts | 309° |
| 2026-05-07 08:42 | -18.02354 | 141.44690 | 37937 ft | 404 kts | 309° |
| 2026-05-07 08:43 | -17.98549 | 141.40338 | 37931 ft | 405 kts | 309° |
| 2026-05-07 08:43 | -17.94739 | 141.35984 | 37953 ft | 405 kts | 309° |
| 2026-05-07 08:44 | -17.90928 | 141.31633 | 37936 ft | 405 kts | 309° |
| 2026-05-07 08:44 | -17.87140 | 141.27310 | 37936 ft | 405 kts | 309° |
| 2026-05-07 08:45 | -17.83323 | 141.22957 | 37936 ft | 405 kts | 309° |
| 2026-05-07 08:45 | -17.79503 | 141.18602 | 37944 ft | 405 kts | 309° |
| 2026-05-07 08:46 | -17.75682 | 141.14249 | 37931 ft | 406 kts | 309° |
| 2026-05-07 08:46 | -17.71867 | 141.09885 | 37952 ft | 405 kts | 308° |
| 2026-05-07 08:47 | -17.68530 | 141.05151 | 37950 ft | 403 kts | 300° |
| 2026-05-07 08:47 | -17.65845 | 141.00044 | 37925 ft | 403 kts | 297° |
| 2026-05-07 08:48 | -17.63200 | 140.94871 | 37933 ft | 403 kts | 297° |
| 2026-05-07 08:48 | -17.60543 | 140.89696 | 37954 ft | 402 kts | 297° |
| 2026-05-07 08:49 | -17.57888 | 140.84529 | 37956 ft | 402 kts | 297° |
| 2026-05-07 08:49 | -17.55232 | 140.79362 | 37947 ft | 403 kts | 297° |
| 2026-05-07 08:50 | -17.52575 | 140.74200 | 37926 ft | 403 kts | 297° |
| 2026-05-07 08:50 | -17.49912 | 140.69031 | 37931 ft | 403 kts | 297° |
| 2026-05-07 08:51 | -17.47252 | 140.63871 | 37951 ft | 403 kts | 297° |
| 2026-05-07 08:51 | -17.44588 | 140.58708 | 37951 ft | 403 kts | 297° |
| 2026-05-07 08:52 | -17.41923 | 140.53547 | 37948 ft | 403 kts | 297° |
| 2026-05-07 08:52 | -17.39256 | 140.48387 | 37931 ft | 403 kts | 297° |
| 2026-05-07 08:53 | -17.36585 | 140.43222 | 37947 ft | 403 kts | 297° |
| 2026-05-07 08:53 | -17.33914 | 140.38062 | 37947 ft | 403 kts | 297° |
| 2026-05-07 08:54 | -17.31241 | 140.32901 | 37944 ft | 403 kts | 297° |
| 2026-05-07 08:54 | -17.28577 | 140.27764 | 37950 ft | 403 kts | 297° |
| 2026-05-07 08:55 | -17.25900 | 140.22603 | 37948 ft | 404 kts | 297° |
| 2026-05-07 08:55 | -17.23222 | 140.17445 | 37948 ft | 404 kts | 297° |
| 2026-05-07 08:56 | -17.20538 | 140.12282 | 37947 ft | 404 kts | 297° |
| 2026-05-07 08:56 | -17.17853 | 140.07119 | 37950 ft | 404 kts | 297° |
| 2026-05-07 08:57 | -17.15168 | 140.01958 | 37952 ft | 404 kts | 297° |
| 2026-05-07 08:57 | -17.12478 | 139.96794 | 37950 ft | 404 kts | 297° |
| 2026-05-07 08:58 | -17.09787 | 139.91631 | 37948 ft | 404 kts | 297° |
| 2026-05-07 08:58 | -17.07093 | 139.86468 | 37950 ft | 404 kts | 297° |
| 2026-05-07 08:59 | -17.04414 | 139.81336 | 37951 ft | 405 kts | 297° |
| 2026-05-07 08:59 | -17.01716 | 139.76172 | 37957 ft | 405 kts | 297° |
| 2026-05-07 09:00 | -16.99015 | 139.71006 | 37951 ft | 405 kts | 297° |
| 2026-05-07 09:00 | -16.96313 | 139.65842 | 37955 ft | 405 kts | 297° |
| 2026-05-07 09:01 | -16.93607 | 139.60676 | 37956 ft | 405 kts | 297° |
| 2026-05-07 09:01 | -16.90899 | 139.55508 | 37955 ft | 406 kts | 297° |
| 2026-05-07 09:02 | -16.88186 | 139.50335 | 37957 ft | 406 kts | 297° |
| 2026-05-07 09:02 | -16.85473 | 139.45167 | 37958 ft | 406 kts | 297° |
| 2026-05-07 09:03 | -16.82755 | 139.39992 | 37961 ft | 406 kts | 297° |
| 2026-05-07 09:03 | -16.80038 | 139.34823 | 37961 ft | 406 kts | 297° |
| 2026-05-07 09:04 | -16.77333 | 139.29681 | 37964 ft | 406 kts | 297° |
| 2026-05-07 09:04 | -16.74610 | 139.24511 | 37964 ft | 406 kts | 297° |
| 2026-05-07 09:05 | -16.71888 | 139.19343 | 37963 ft | 406 kts | 297° |
| 2026-05-07 09:05 | -16.69161 | 139.14172 | 37964 ft | 407 kts | 297° |
| 2026-05-07 09:06 | -16.66435 | 139.09006 | 37964 ft | 407 kts | 298° |
| 2026-05-07 09:06 | -16.63706 | 139.03838 | 37964 ft | 407 kts | 297° |
| 2026-05-07 09:07 | -16.60975 | 138.98671 | 37960 ft | 407 kts | 297° |
| 2026-05-07 09:07 | -16.58242 | 138.93503 | 37960 ft | 407 kts | 297° |
| 2026-05-07 09:08 | -16.55523 | 138.88366 | 37960 ft | 407 kts | 297° |
| 2026-05-07 09:08 | -16.52784 | 138.83193 | 37964 ft | 408 kts | 297° |
| 2026-05-07 09:09 | -16.50043 | 138.78022 | 37966 ft | 408 kts | 297° |
| 2026-05-07 09:09 | -16.47297 | 138.72846 | 37963 ft | 408 kts | 297° |
| 2026-05-07 09:10 | -16.44547 | 138.67666 | 37968 ft | 408 kts | 297° |
| 2026-05-07 09:10 | -16.41800 | 138.62494 | 37967 ft | 408 kts | 297° |
| 2026-05-07 09:11 | -16.39048 | 138.57319 | 37958 ft | 409 kts | 297° |
| 2026-05-07 09:11 | -16.36294 | 138.52142 | 37953 ft | 409 kts | 297° |
| 2026-05-07 09:12 | -16.33536 | 138.46963 | 37964 ft | 409 kts | 297° |
| 2026-05-07 09:12 | -16.30778 | 138.41786 | 37963 ft | 409 kts | 298° |
| 2026-05-07 09:13 | -16.28015 | 138.36604 | 37964 ft | 409 kts | 298° |
| 2026-05-07 09:13 | -16.25251 | 138.31426 | 37960 ft | 409 kts | 298° |
| 2026-05-07 09:14 | -16.22485 | 138.26245 | 37962 ft | 410 kts | 298° |
| 2026-05-07 09:14 | -16.19715 | 138.21062 | 37962 ft | 410 kts | 298° |
| 2026-05-07 09:15 | -16.16963 | 138.15916 | 37963 ft | 410 kts | 297° |
| 2026-05-07 09:15 | -16.14185 | 138.10726 | 37963 ft | 410 kts | 297° |
| 2026-05-07 09:16 | -16.11405 | 138.05535 | 37962 ft | 410 kts | 298° |
| 2026-05-07 09:16 | -16.08625 | 138.00348 | 37967 ft | 410 kts | 298° |
| 2026-05-07 09:17 | -16.05845 | 137.95165 | 37965 ft | 410 kts | 298° |
| 2026-05-07 09:17 | -16.03063 | 137.89981 | 37965 ft | 411 kts | 298° |
| 2026-05-07 09:18 | -16.00279 | 137.84798 | 37964 ft | 411 kts | 297° |
| 2026-05-07 09:18 | -15.97510 | 137.79647 | 37965 ft | 411 kts | 298° |
| 2026-05-07 09:19 | -15.94723 | 137.74466 | 37964 ft | 411 kts | 298° |
| 2026-05-07 09:19 | -15.91934 | 137.69285 | 37969 ft | 411 kts | 298° |
| 2026-05-07 09:20 | -15.89146 | 137.64109 | 37965 ft | 411 kts | 298° |
| 2026-05-07 09:20 | -15.86356 | 137.58933 | 37965 ft | 411 kts | 298° |
| 2026-05-07 09:21 | -15.83564 | 137.53758 | 37965 ft | 411 kts | 298° |
| 2026-05-07 09:21 | -15.80769 | 137.48581 | 37966 ft | 411 kts | 298° |
| 2026-05-07 09:22 | -15.77973 | 137.43405 | 37965 ft | 411 kts | 298° |
| 2026-05-07 09:22 | -15.75175 | 137.38230 | 37963 ft | 411 kts | 298° |
| 2026-05-07 09:23 | -15.72376 | 137.33055 | 37961 ft | 411 kts | 298° |
| 2026-05-07 09:23 | -15.69574 | 137.27880 | 37964 ft | 411 kts | 298° |
| 2026-05-07 09:24 | -15.66769 | 137.22704 | 37962 ft | 411 kts | 298° |
| 2026-05-07 09:24 | -15.63978 | 137.17556 | 37964 ft | 412 kts | 298° |
| 2026-05-07 09:25 | -15.61169 | 137.12378 | 37965 ft | 412 kts | 298° |
| 2026-05-07 09:25 | -15.58357 | 137.07198 | 37965 ft | 412 kts | 298° |
| 2026-05-07 09:26 | -15.55542 | 137.02017 | 37961 ft | 412 kts | 298° |
| 2026-05-07 09:26 | -15.52726 | 136.96838 | 37967 ft | 412 kts | 298° |
| 2026-05-07 09:27 | -15.49909 | 136.91660 | 37965 ft | 412 kts | 298° |
| 2026-05-07 09:28 | -15.45699 | 136.83929 | 37966 ft | 412 kts | 298° |
| 2026-05-07 09:28 | -15.42860 | 136.78717 | 37966 ft | 413 kts | 298° |
| 2026-05-07 09:29 | -15.40036 | 136.73536 | 37970 ft | 413 kts | 298° |
| 2026-05-07 09:29 | -15.37231 | 136.68394 | 37960 ft | 413 kts | 298° |
| 2026-05-07 09:30 | -15.34400 | 136.63216 | 37964 ft | 413 kts | 298° |
| 2026-05-07 09:30 | -15.31559 | 136.58027 | 37962 ft | 414 kts | 298° |
| 2026-05-07 09:31 | -15.28723 | 136.52843 | 37965 ft | 414 kts | 298° |
| 2026-05-07 09:31 | -15.26342 | 136.48493 | 37967 ft | 414 kts | 298° |
| 2026-05-07 09:32 | -15.23518 | 136.43334 | 37965 ft | 415 kts | 298° |
| 2026-05-07 09:32 | -15.20670 | 136.38139 | 37972 ft | 415 kts | 298° |
| 2026-05-07 09:33 | -15.17819 | 136.32940 | 37973 ft | 415 kts | 298° |
| 2026-05-07 09:33 | -15.14968 | 136.27745 | 37971 ft | 415 kts | 298° |
| 2026-05-07 09:34 | -15.12115 | 136.22552 | 37967 ft | 415 kts | 298° |
| 2026-05-07 09:34 | -15.09257 | 136.17352 | 37969 ft | 415 kts | 298° |
| 2026-05-07 09:35 | -15.06399 | 136.12156 | 37970 ft | 416 kts | 298° |
| 2026-05-07 09:35 | -15.03536 | 136.06955 | 37969 ft | 416 kts | 298° |
| 2026-05-07 09:36 | -15.00675 | 136.01760 | 37970 ft | 416 kts | 298° |
| 2026-05-07 09:36 | -14.97810 | 135.96562 | 37970 ft | 416 kts | 298° |
| 2026-05-07 09:37 | -14.94943 | 135.91363 | 37971 ft | 416 kts | 298° |
| 2026-05-07 09:37 | -14.92090 | 135.86193 | 37972 ft | 416 kts | 298° |
| 2026-05-07 09:38 | -14.89218 | 135.80993 | 37972 ft | 416 kts | 298° |
| 2026-05-07 09:38 | -14.86345 | 135.75795 | 37972 ft | 416 kts | 298° |
| 2026-05-07 09:39 | -14.83470 | 135.70595 | 37972 ft | 417 kts | 298° |
| 2026-05-07 09:39 | -14.80590 | 135.65391 | 37974 ft | 417 kts | 298° |
| 2026-05-07 09:40 | -14.77708 | 135.60187 | 37969 ft | 417 kts | 298° |
| 2026-05-07 09:40 | -14.74828 | 135.54988 | 37967 ft | 417 kts | 298° |
| 2026-05-07 09:41 | -14.71943 | 135.49785 | 37973 ft | 418 kts | 298° |
| 2026-05-07 09:41 | -14.69054 | 135.44578 | 37970 ft | 418 kts | 298° |
| 2026-05-07 09:42 | -14.66158 | 135.39364 | 37970 ft | 418 kts | 298° |
| 2026-05-07 09:42 | -14.63263 | 135.34152 | 37973 ft | 419 kts | 298° |
| 2026-05-07 09:43 | -14.60362 | 135.28934 | 37976 ft | 419 kts | 298° |
| 2026-05-07 09:43 | -14.57461 | 135.23721 | 37973 ft | 419 kts | 298° |
| 2026-05-07 09:44 | -14.54553 | 135.18496 | 37978 ft | 419 kts | 298° |
| 2026-05-07 09:44 | -14.51649 | 135.13283 | 37976 ft | 419 kts | 298° |
| 2026-05-07 09:45 | -14.48738 | 135.08061 | 37979 ft | 420 kts | 298° |
| 2026-05-07 09:45 | -14.45824 | 135.02837 | 37978 ft | 420 kts | 298° |
| 2026-05-07 09:46 | -14.42911 | 134.97618 | 37979 ft | 420 kts | 298° |
| 2026-05-07 09:46 | -14.40012 | 134.92427 | 37980 ft | 420 kts | 298° |
| 2026-05-07 09:47 | -14.37094 | 134.87206 | 37982 ft | 420 kts | 298° |
| 2026-05-07 09:47 | -14.34171 | 134.81980 | 37980 ft | 421 kts | 298° |
| 2026-05-07 09:48 | -14.31243 | 134.76747 | 37983 ft | 421 kts | 298° |
| 2026-05-07 09:48 | -14.28314 | 134.71517 | 37980 ft | 421 kts | 298° |
| 2026-05-07 09:49 | -14.25384 | 134.66289 | 37981 ft | 422 kts | 298° |
| 2026-05-07 09:49 | -14.22448 | 134.61052 | 37983 ft | 422 kts | 298° |
| 2026-05-07 09:50 | -14.19510 | 134.55816 | 37986 ft | 422 kts | 298° |
| 2026-05-07 09:50 | -14.16569 | 134.50578 | 37981 ft | 422 kts | 298° |
| 2026-05-07 09:51 | -14.13629 | 134.45344 | 37981 ft | 422 kts | 298° |
| 2026-05-07 09:51 | -14.10704 | 134.40141 | 37981 ft | 422 kts | 298° |
| 2026-05-07 09:52 | -14.07759 | 134.34906 | 37982 ft | 422 kts | 298° |
| 2026-05-07 09:52 | -14.04813 | 134.29673 | 37979 ft | 422 kts | 298° |
| 2026-05-07 09:53 | -14.01861 | 134.24432 | 37979 ft | 423 kts | 298° |
| 2026-05-07 09:53 | -13.98910 | 134.19195 | 37983 ft | 423 kts | 298° |
| 2026-05-07 09:54 | -13.95959 | 134.13963 | 37982 ft | 423 kts | 298° |
| 2026-05-07 09:54 | -13.93002 | 134.08723 | 37979 ft | 423 kts | 298° |
| 2026-05-07 09:55 | -13.90041 | 134.03479 | 37996 ft | 423 kts | 298° |
| 2026-05-07 09:55 | -13.87079 | 133.98236 | 37970 ft | 424 kts | 298° |
| 2026-05-07 09:56 | -13.84117 | 133.92998 | 37970 ft | 424 kts | 298° |
| 2026-05-07 09:56 | -13.81148 | 133.87751 | 37987 ft | 424 kts | 298° |
| 2026-05-07 09:57 | -13.78179 | 133.82506 | 37998 ft | 424 kts | 298° |
| 2026-05-07 09:57 | -13.75225 | 133.77292 | 37979 ft | 425 kts | 298° |
| 2026-05-07 09:58 | -13.72248 | 133.72039 | 37987 ft | 425 kts | 298° |
| 2026-05-07 09:58 | -13.69270 | 133.66788 | 37978 ft | 425 kts | 298° |
| 2026-05-07 09:59 | -13.66286 | 133.61532 | 37985 ft | 426 kts | 298° |
| 2026-05-07 09:59 | -13.63300 | 133.56272 | 37981 ft | 426 kts | 298° |
| 2026-05-07 10:00 | -13.60307 | 133.51006 | 37991 ft | 426 kts | 298° |
| 2026-05-07 10:00 | -13.57311 | 133.45736 | 37985 ft | 427 kts | 298° |
| 2026-05-07 10:01 | -13.54313 | 133.40468 | 37983 ft | 427 kts | 298° |
| 2026-05-07 10:01 | -13.51312 | 133.35196 | 37989 ft | 427 kts | 298° |
| 2026-05-07 10:02 | -13.48312 | 133.29926 | 37984 ft | 428 kts | 298° |
| 2026-05-07 10:02 | -13.45324 | 133.24682 | 37984 ft | 428 kts | 298° |
| 2026-05-07 10:03 | -13.42312 | 133.19404 | 37979 ft | 428 kts | 298° |
| 2026-05-07 10:03 | -13.39298 | 133.14126 | 37976 ft | 428 kts | 298° |
| 2026-05-07 10:04 | -13.36283 | 133.08849 | 37981 ft | 429 kts | 298° |
| 2026-05-07 10:04 | -13.33265 | 133.03566 | 37964 ft | 429 kts | 298° |
| 2026-05-07 10:05 | -13.30250 | 132.98293 | 37967 ft | 428 kts | 298° |
| 2026-05-07 10:05 | -13.27231 | 132.93017 | 37968 ft | 429 kts | 298° |
| 2026-05-07 10:06 | -13.24203 | 132.87728 | 37954 ft | 430 kts | 298° |
| 2026-05-07 10:06 | -13.21171 | 132.82436 | 37956 ft | 430 kts | 298° |
| 2026-05-07 10:07 | -13.18158 | 132.77179 | 37953 ft | 430 kts | 298° |
| 2026-05-07 10:07 | -13.15120 | 132.71883 | 37954 ft | 430 kts | 298° |
| 2026-05-07 10:08 | -13.12081 | 132.66587 | 37959 ft | 431 kts | 298° |
| 2026-05-07 10:08 | -13.09041 | 132.61293 | 37947 ft | 431 kts | 298° |
| 2026-05-07 10:09 | -13.05995 | 132.55993 | 37947 ft | 431 kts | 298° |
| 2026-05-07 10:09 | -13.02949 | 132.50694 | 37942 ft | 431 kts | 298° |
| 2026-05-07 10:10 | -12.99896 | 132.45387 | 37946 ft | 432 kts | 298° |
| 2026-05-07 10:10 | -12.96842 | 132.40082 | 37946 ft | 432 kts | 298° |
| 2026-05-07 10:11 | -12.93788 | 132.34780 | 37944 ft | 432 kts | 298° |
| 2026-05-07 10:11 | -12.90731 | 132.29475 | 37931 ft | 432 kts | 298° |
| 2026-05-07 10:12 | -12.87693 | 132.24207 | 37931 ft | 432 kts | 298° |
| 2026-05-07 10:12 | -12.84914 | 132.18759 | 37929 ft | 431 kts | 291° |
| 2026-05-07 10:13 | -12.82911 | 132.12985 | 37931 ft | 430 kts | 287° |
| 2026-05-07 10:13 | -12.81011 | 132.07173 | 37937 ft | 431 kts | 287° |
| 2026-05-07 10:14 | -12.79089 | 132.01348 | 37938 ft | 431 kts | 287° |
| 2026-05-07 10:14 | -12.77167 | 131.95522 | 37937 ft | 431 kts | 287° |
| 2026-05-07 10:15 | -12.75245 | 131.89696 | 37935 ft | 432 kts | 287° |
| 2026-05-07 10:15 | -12.73318 | 131.83863 | 37935 ft | 432 kts | 288° |
| 2026-05-07 10:16 | -12.71403 | 131.78067 | 37938 ft | 432 kts | 287° |
| 2026-05-07 10:16 | -12.69471 | 131.72226 | 37933 ft | 433 kts | 287° |
| 2026-05-07 10:17 | -12.67538 | 131.66388 | 37935 ft | 433 kts | 288° |
| 2026-05-07 10:17 | -12.65603 | 131.60547 | 37934 ft | 433 kts | 288° |
| 2026-05-07 10:18 | -12.63665 | 131.54703 | 37935 ft | 433 kts | 288° |
| 2026-05-07 10:18 | -12.62052 | 131.49842 | 37935 ft | 433 kts | 288° |
| 2026-05-07 10:19 | -12.60111 | 131.43996 | 37932 ft | 434 kts | 288° |
| 2026-05-07 10:19 | -12.58168 | 131.38150 | 37934 ft | 434 kts | 288° |
| 2026-05-07 10:20 | -12.56221 | 131.32296 | 37935 ft | 434 kts | 288° |
| 2026-05-07 10:20 | -12.54274 | 131.26446 | 37933 ft | 434 kts | 288° |
| 2026-05-07 10:21 | -12.52325 | 131.20594 | 37934 ft | 435 kts | 288° |
| 2026-05-07 10:21 | -12.50373 | 131.14740 | 37944 ft | 435 kts | 288° |
| 2026-05-07 10:22 | -12.48418 | 131.08883 | 37952 ft | 435 kts | 288° |
| 2026-05-07 10:22 | -12.46472 | 131.03055 | 37960 ft | 435 kts | 288° |
| 2026-05-07 10:23 | -12.44500 | 130.97153 | 37963 ft | 436 kts | 288° |
| 2026-05-07 10:23 | -12.42493 | 130.91343 | 37991 ft | 436 kts | 291° |
| 2026-05-07 10:24 | -12.39818 | 130.85793 | 37964 ft | 434 kts | 296° |
| 2026-05-07 10:24 | -12.36972 | 130.80336 | 37966 ft | 435 kts | 296° |
| 2026-05-07 10:25 | -12.34137 | 130.74866 | 37958 ft | 435 kts | 296° |
| 2026-05-07 10:25 | -12.31300 | 130.69397 | 37959 ft | 435 kts | 296° |
| 2026-05-07 10:26 | -12.28457 | 130.63925 | 37954 ft | 436 kts | 296° |
| 2026-05-07 10:26 | -12.25612 | 130.58451 | 37945 ft | 436 kts | 296° |
| 2026-05-07 10:27 | -12.22766 | 130.52978 | 37938 ft | 436 kts | 296° |
| 2026-05-07 10:27 | -12.19912 | 130.47493 | 37938 ft | 436 kts | 296° |
| 2026-05-07 10:28 | -12.17075 | 130.42045 | 37937 ft | 437 kts | 296° |
| 2026-05-07 10:28 | -12.14221 | 130.36567 | 37942 ft | 437 kts | 296° |
| 2026-05-07 10:29 | -12.11362 | 130.31084 | 37939 ft | 437 kts | 296° |
| 2026-05-07 10:29 | -12.08502 | 130.25601 | 37935 ft | 437 kts | 296° |
| 2026-05-07 10:30 | -12.04206 | 130.17370 | 37941 ft | 438 kts | 296° |
| 2026-05-07 10:30 | -12.01338 | 130.11881 | 37938 ft | 438 kts | 296° |
| 2026-05-07 10:31 | -11.98467 | 130.06389 | 37941 ft | 438 kts | 296° |
| 2026-05-07 10:31 | -11.95593 | 130.00893 | 37939 ft | 439 kts | 296° |
| 2026-05-07 10:32 | -11.92714 | 129.95391 | 37943 ft | 439 kts | 296° |
| 2026-05-07 10:32 | -11.89854 | 129.89930 | 37942 ft | 439 kts | 296° |
| 2026-05-07 10:33 | -11.86974 | 129.84432 | 37942 ft | 439 kts | 296° |
| 2026-05-07 10:33 | -11.84091 | 129.78933 | 37938 ft | 440 kts | 296° |
| 2026-05-07 10:34 | -11.81205 | 129.73431 | 37941 ft | 440 kts | 296° |
| 2026-05-07 10:34 | -11.78313 | 129.67920 | 37944 ft | 440 kts | 296° |
| 2026-05-07 10:35 | -11.75420 | 129.62412 | 37944 ft | 440 kts | 296° |
| 2026-05-07 10:35 | -11.72523 | 129.56899 | 37942 ft | 441 kts | 296° |
| 2026-05-07 10:36 | -11.69624 | 129.51385 | 37941 ft | 441 kts | 296° |
| 2026-05-07 10:36 | -11.66723 | 129.45871 | 37946 ft | 441 kts | 296° |
| 2026-05-07 10:37 | -11.63817 | 129.40349 | 37947 ft | 441 kts | 296° |
| 2026-05-07 10:37 | -11.60910 | 129.34831 | 37947 ft | 442 kts | 296° |
| 2026-05-07 10:38 | -11.58001 | 129.29309 | 37945 ft | 442 kts | 296° |
| 2026-05-07 10:38 | -11.55088 | 129.23784 | 37941 ft | 442 kts | 296° |
| 2026-05-07 10:39 | -11.52189 | 129.18289 | 37945 ft | 443 kts | 296° |
| 2026-05-07 10:39 | -11.49268 | 129.12755 | 37942 ft | 443 kts | 296° |
| 2026-05-07 10:40 | -11.46349 | 129.07229 | 37944 ft | 443 kts | 296° |
| 2026-05-07 10:40 | -11.43424 | 129.01694 | 37945 ft | 443 kts | 296° |
| 2026-05-07 10:41 | -11.40496 | 128.96156 | 37948 ft | 444 kts | 296° |
| 2026-05-07 10:41 | -11.37566 | 128.90619 | 37945 ft | 444 kts | 296° |
| 2026-05-07 10:42 | -11.34634 | 128.85080 | 37941 ft | 444 kts | 296° |
| 2026-05-07 10:42 | -11.31720 | 128.79577 | 37949 ft | 444 kts | 296° |
| 2026-05-07 10:43 | -11.28784 | 128.74037 | 37947 ft | 445 kts | 296° |
| 2026-05-07 10:43 | -11.25845 | 128.68494 | 37945 ft | 445 kts | 296° |
| 2026-05-07 10:44 | -11.22901 | 128.62946 | 37943 ft | 445 kts | 296° |
| 2026-05-07 10:44 | -11.19953 | 128.57395 | 37947 ft | 445 kts | 296° |
| 2026-05-07 10:45 | -11.17007 | 128.51849 | 37944 ft | 445 kts | 296° |
| 2026-05-07 10:45 | -11.14056 | 128.46297 | 37946 ft | 446 kts | 296° |
| 2026-05-07 10:46 | -11.11105 | 128.40747 | 37947 ft | 446 kts | 296° |
| 2026-05-07 10:46 | -11.08150 | 128.35195 | 37946 ft | 446 kts | 296° |
| 2026-05-07 10:47 | -11.05196 | 128.29646 | 37946 ft | 446 kts | 296° |
| 2026-05-07 10:47 | -11.02237 | 128.24092 | 37940 ft | 446 kts | 296° |
| 2026-05-07 10:48 | -10.99273 | 128.18529 | 37945 ft | 447 kts | 296° |
| 2026-05-07 10:48 | -10.96325 | 128.13002 | 37946 ft | 447 kts | 296° |
| 2026-05-07 10:49 | -10.93361 | 128.07447 | 37948 ft | 447 kts | 296° |
| 2026-05-07 10:49 | -10.90387 | 128.01877 | 37946 ft | 447 kts | 296° |
| 2026-05-07 10:50 | -10.87414 | 127.96310 | 37964 ft | 447 kts | 296° |
| 2026-05-07 10:50 | -10.84439 | 127.90743 | 37940 ft | 448 kts | 296° |
| 2026-05-07 10:51 | -10.81464 | 127.85179 | 37936 ft | 448 kts | 296° |
| 2026-05-07 10:51 | -10.78482 | 127.79606 | 37939 ft | 448 kts | 296° |
| 2026-05-07 10:52 | -10.75519 | 127.74071 | 37960 ft | 448 kts | 296° |
| 2026-05-07 10:52 | -10.72535 | 127.68498 | 37940 ft | 448 kts | 296° |
| 2026-05-07 10:53 | -10.69550 | 127.62928 | 37935 ft | 449 kts | 297° |
| 2026-05-07 10:53 | -10.66562 | 127.57354 | 37943 ft | 449 kts | 297° |
| 2026-05-07 10:54 | -10.63571 | 127.51780 | 37955 ft | 449 kts | 297° |
| 2026-05-07 10:54 | -10.60580 | 127.46206 | 37937 ft | 449 kts | 297° |
| 2026-05-07 10:55 | -10.57588 | 127.40634 | 37931 ft | 450 kts | 297° |
| 2026-05-07 10:55 | -10.54590 | 127.35055 | 37952 ft | 449 kts | 297° |
| 2026-05-07 10:56 | -10.51611 | 127.29512 | 37953 ft | 449 kts | 297° |
| 2026-05-07 10:56 | -10.48609 | 127.23930 | 37949 ft | 450 kts | 297° |
| 2026-05-07 10:57 | -10.45607 | 127.18352 | 37932 ft | 450 kts | 297° |
| 2026-05-07 10:57 | -10.42603 | 127.12770 | 37950 ft | 450 kts | 297° |
| 2026-05-07 10:58 | -10.39591 | 127.07189 | 37954 ft | 450 kts | 297° |
| 2026-05-07 10:58 | -10.36577 | 127.01609 | 37950 ft | 451 kts | 297° |
| 2026-05-07 10:59 | -10.33558 | 126.96021 | 37928 ft | 451 kts | 297° |
| 2026-05-07 10:59 | -10.30540 | 126.90438 | 37951 ft | 451 kts | 297° |
| 2026-05-07 11:00 | -10.27521 | 126.84853 | 37946 ft | 451 kts | 297° |
| 2026-05-07 11:00 | -10.24499 | 126.79268 | 37945 ft | 451 kts | 297° |
| 2026-05-07 11:01 | -10.21474 | 126.73680 | 37942 ft | 451 kts | 297° |
| 2026-05-07 11:01 | -10.18449 | 126.68094 | 37938 ft | 452 kts | 297° |
| 2026-05-07 11:02 | -10.15438 | 126.62538 | 37946 ft | 452 kts | 297° |
| 2026-05-07 11:02 | -10.12408 | 126.56949 | 37940 ft | 452 kts | 297° |
| 2026-05-07 11:03 | -10.09376 | 126.51359 | 37945 ft | 452 kts | 297° |
| 2026-05-07 11:03 | -10.06345 | 126.45773 | 37945 ft | 452 kts | 297° |
| 2026-05-07 11:04 | -10.03310 | 126.40183 | 37948 ft | 452 kts | 297° |
| 2026-05-07 11:04 | -10.00267 | 126.34582 | 37945 ft | 452 kts | 297° |
| 2026-05-07 11:05 | -9.97231 | 126.28994 | 37944 ft | 452 kts | 297° |
| 2026-05-07 11:05 | -9.94192 | 126.23407 | 37941 ft | 453 kts | 297° |
| 2026-05-07 11:06 | -9.91149 | 126.17812 | 37935 ft | 453 kts | 297° |
| 2026-05-07 11:06 | -9.88620 | 126.13165 | 37937 ft | 453 kts | 297° |
| 2026-05-07 11:07 | -9.85400 | 126.06508 | 37933 ft | 452 kts | 294° |
| 2026-05-07 11:07 | -9.83120 | 126.01686 | 37936 ft | 452 kts | 294° |
| 2026-05-07 11:08 | -9.80409 | 125.95974 | 37933 ft | 453 kts | 294° |
| 2026-05-07 11:08 | -9.77675 | 125.90217 | 37939 ft | 453 kts | 294° |
| 2026-05-07 11:09 | -9.74936 | 125.84453 | 37939 ft | 453 kts | 294° |
| 2026-05-07 11:09 | -9.72196 | 125.78689 | 37937 ft | 454 kts | 294° |
| 2026-05-07 11:10 | -9.69453 | 125.72923 | 37930 ft | 454 kts | 294° |
| 2026-05-07 11:10 | -9.66707 | 125.67153 | 37936 ft | 454 kts | 294° |
| 2026-05-07 11:11 | -9.63960 | 125.61384 | 37938 ft | 455 kts | 294° |
| 2026-05-07 11:11 | -9.61210 | 125.55610 | 37941 ft | 455 kts | 294° |
| 2026-05-07 11:12 | -9.58460 | 125.49840 | 37942 ft | 455 kts | 294° |
| 2026-05-07 11:12 | -9.55725 | 125.44106 | 37942 ft | 455 kts | 294° |
| 2026-05-07 11:13 | -9.52973 | 125.38337 | 37946 ft | 455 kts | 294° |
| 2026-05-07 11:13 | -9.50218 | 125.32565 | 37947 ft | 455 kts | 294° |
| 2026-05-07 11:14 | -9.47460 | 125.26790 | 37948 ft | 455 kts | 294° |
| 2026-05-07 11:14 | -9.44703 | 125.21022 | 37948 ft | 455 kts | 294° |
| 2026-05-07 11:15 | -9.41940 | 125.15241 | 37953 ft | 455 kts | 294° |
| 2026-05-07 11:15 | -9.39178 | 125.09466 | 37953 ft | 456 kts | 294° |
| 2026-05-07 11:16 | -9.36411 | 125.03690 | 37953 ft | 456 kts | 294° |
| 2026-05-07 11:16 | -9.33641 | 124.97908 | 37951 ft | 456 kts | 294° |
| 2026-05-07 11:17 | -9.30874 | 124.92129 | 37951 ft | 456 kts | 294° |
| 2026-05-07 11:17 | -9.28102 | 124.86343 | 37946 ft | 457 kts | 294° |
| 2026-05-07 11:18 | -9.25343 | 124.80587 | 37938 ft | 457 kts | 294° |
| 2026-05-07 11:18 | -9.22569 | 124.74804 | 37938 ft | 457 kts | 294° |
| 2026-05-07 11:19 | -9.19794 | 124.69022 | 37929 ft | 457 kts | 294° |
| 2026-05-07 11:19 | -9.17016 | 124.63237 | 37924 ft | 457 kts | 294° |
| 2026-05-07 11:20 | -9.14237 | 124.57454 | 37916 ft | 457 kts | 294° |
| 2026-05-07 11:20 | -9.11459 | 124.51674 | 37915 ft | 457 kts | 294° |
| 2026-05-07 11:21 | -9.08677 | 124.45889 | 37908 ft | 457 kts | 294° |
| 2026-05-07 11:21 | -9.05891 | 124.40099 | 37902 ft | 457 kts | 294° |
| 2026-05-07 11:22 | -9.03106 | 124.34313 | 37905 ft | 457 kts | 294° |
| 2026-05-07 11:22 | -9.00338 | 124.28566 | 37896 ft | 457 kts | 294° |
| 2026-05-07 11:23 | -8.97549 | 124.22778 | 37895 ft | 458 kts | 294° |
| 2026-05-07 11:23 | -8.94759 | 124.16991 | 37897 ft | 458 kts | 294° |
| 2026-05-07 11:24 | -8.91965 | 124.11198 | 37898 ft | 458 kts | 294° |
| 2026-05-07 11:24 | -8.89173 | 124.05412 | 37897 ft | 458 kts | 294° |
| 2026-05-07 11:25 | -8.86376 | 123.99618 | 37896 ft | 458 kts | 294° |
| 2026-05-07 11:25 | -8.83578 | 123.93825 | 37896 ft | 458 kts | 295° |
| 2026-05-07 11:26 | -8.80794 | 123.88063 | 37892 ft | 459 kts | 295° |
| 2026-05-07 11:26 | -8.77973 | 123.82229 | 37897 ft | 459 kts | 295° |
| 2026-05-07 11:27 | -8.75189 | 123.76473 | 37895 ft | 459 kts | 295° |
| 2026-05-07 11:27 | -8.72380 | 123.70669 | 37897 ft | 459 kts | 295° |
| 2026-05-07 11:28 | -8.69572 | 123.64869 | 37896 ft | 460 kts | 295° |
| 2026-05-07 11:28 | -8.66757 | 123.59058 | 37900 ft | 460 kts | 295° |
| 2026-05-07 11:29 | -8.63943 | 123.53249 | 37899 ft | 460 kts | 295° |
| 2026-05-07 11:29 | -8.61126 | 123.47439 | 37899 ft | 460 kts | 295° |
| 2026-05-07 11:30 | -8.58311 | 123.41635 | 37902 ft | 460 kts | 295° |
| 2026-05-07 11:30 | -8.55492 | 123.35825 | 37901 ft | 461 kts | 295° |
| 2026-05-07 11:31 | -8.52671 | 123.30013 | 37899 ft | 461 kts | 295° |
| 2026-05-07 11:31 | -8.49867 | 123.24242 | 37904 ft | 461 kts | 295° |
| 2026-05-07 11:32 | -8.45632 | 123.15527 | 37903 ft | 461 kts | 295° |
| 2026-05-07 11:33 | -8.42806 | 123.09712 | 37898 ft | 461 kts | 295° |
| 2026-05-07 11:33 | -8.39981 | 123.03904 | 37897 ft | 461 kts | 295° |
| 2026-05-07 11:34 | -8.37151 | 122.98089 | 37899 ft | 461 kts | 295° |
| 2026-05-07 11:34 | -8.34319 | 122.92273 | 37892 ft | 461 kts | 295° |
| 2026-05-07 11:35 | -8.31486 | 122.86456 | 37893 ft | 462 kts | 295° |
| 2026-05-07 11:35 | -8.28651 | 122.80638 | 37897 ft | 462 kts | 295° |
| 2026-05-07 11:36 | -8.25815 | 122.74822 | 37888 ft | 462 kts | 295° |
| 2026-05-07 11:36 | -8.22975 | 122.68999 | 37890 ft | 462 kts | 295° |
| 2026-05-07 11:37 | -8.20136 | 122.63180 | 37882 ft | 462 kts | 295° |
| 2026-05-07 11:37 | -8.17311 | 122.57392 | 37889 ft | 462 kts | 295° |
| 2026-05-07 11:38 | -8.14467 | 122.51569 | 37881 ft | 463 kts | 295° |
| 2026-05-07 11:38 | -8.11622 | 122.45747 | 37881 ft | 463 kts | 295° |
| 2026-05-07 11:39 | -8.08772 | 122.39916 | 37883 ft | 463 kts | 295° |
| 2026-05-07 11:39 | -8.05920 | 122.34084 | 37878 ft | 464 kts | 295° |
| 2026-05-07 11:40 | -8.03061 | 122.28238 | 37877 ft | 464 kts | 295° |
| 2026-05-07 11:40 | -8.00206 | 122.22405 | 37881 ft | 464 kts | 295° |
| 2026-05-07 11:41 | -7.97346 | 122.16565 | 37879 ft | 464 kts | 295° |
| 2026-05-07 11:41 | -7.94505 | 122.10764 | 37884 ft | 464 kts | 295° |
| 2026-05-07 11:42 | -7.91640 | 122.04917 | 37882 ft | 465 kts | 295° |
| 2026-05-07 11:42 | -7.88771 | 121.99066 | 37880 ft | 465 kts | 295° |
| 2026-05-07 11:43 | -7.85903 | 121.93218 | 37882 ft | 465 kts | 295° |
| 2026-05-07 11:43 | -7.83033 | 121.87369 | 37880 ft | 465 kts | 295° |
| 2026-05-07 11:44 | -7.80162 | 121.81519 | 37883 ft | 466 kts | 295° |
| 2026-05-07 11:44 | -7.77288 | 121.75666 | 37879 ft | 466 kts | 295° |
| 2026-05-07 11:45 | -7.74411 | 121.69810 | 37882 ft | 466 kts | 295° |
| 2026-05-07 11:45 | -7.71549 | 121.63989 | 37877 ft | 466 kts | 295° |
| 2026-05-07 11:46 | -7.68670 | 121.58133 | 37881 ft | 466 kts | 295° |
| 2026-05-07 11:46 | -7.65788 | 121.52273 | 37880 ft | 466 kts | 296° |
| 2026-05-07 11:47 | -7.62902 | 121.46409 | 37881 ft | 466 kts | 295° |
| 2026-05-07 11:47 | -7.60017 | 121.40549 | 37882 ft | 466 kts | 295° |
| 2026-05-07 11:48 | -7.57135 | 121.34697 | 37882 ft | 466 kts | 295° |
| 2026-05-07 11:48 | -7.54249 | 121.28839 | 37881 ft | 466 kts | 295° |
| 2026-05-07 11:49 | -7.51366 | 121.22988 | 37885 ft | 466 kts | 295° |
| 2026-05-07 11:49 | -7.48502 | 121.17181 | 37881 ft | 466 kts | 295° |
| 2026-05-07 11:50 | -7.45615 | 121.11328 | 37881 ft | 466 kts | 295° |
| 2026-05-07 11:50 | -7.42728 | 121.05479 | 37880 ft | 466 kts | 295° |
| 2026-05-07 11:51 | -7.39842 | 120.99632 | 37882 ft | 466 kts | 295° |
| 2026-05-07 11:51 | -7.36951 | 120.93778 | 37876 ft | 466 kts | 296° |
| 2026-05-07 11:52 | -7.34060 | 120.87925 | 37879 ft | 466 kts | 296° |
| 2026-05-07 11:52 | -7.31169 | 120.82077 | 37877 ft | 467 kts | 296° |
| 2026-05-07 11:53 | -7.28273 | 120.76221 | 37879 ft | 467 kts | 296° |
| 2026-05-07 11:53 | -7.25379 | 120.70372 | 37879 ft | 467 kts | 296° |
| 2026-05-07 11:54 | -7.22503 | 120.64557 | 37881 ft | 467 kts | 296° |
| 2026-05-07 11:54 | -7.19607 | 120.58708 | 37882 ft | 467 kts | 296° |
| 2026-05-07 11:55 | -7.16709 | 120.52856 | 37876 ft | 467 kts | 296° |
| 2026-05-07 11:55 | -7.13808 | 120.47002 | 37879 ft | 467 kts | 296° |
| 2026-05-07 11:56 | -7.10908 | 120.41149 | 37879 ft | 467 kts | 296° |
| 2026-05-07 11:56 | -7.08004 | 120.35293 | 37877 ft | 467 kts | 296° |
| 2026-05-07 11:57 | -7.05594 | 120.30430 | 37879 ft | 466 kts | 296° |
| 2026-05-07 11:57 | -7.02695 | 120.24588 | 37876 ft | 467 kts | 296° |
| 2026-05-07 11:58 | -6.99790 | 120.18734 | 37879 ft | 468 kts | 296° |
| 2026-05-07 11:58 | -6.96883 | 120.12879 | 37877 ft | 467 kts | 296° |
| 2026-05-07 11:59 | -6.93976 | 120.07024 | 37879 ft | 467 kts | 296° |
| 2026-05-07 11:59 | -6.91065 | 120.01168 | 37881 ft | 468 kts | 296° |
| 2026-05-07 12:00 | -6.88133 | 119.95314 | 37879 ft | 468 kts | 296° |
| 2026-05-07 12:00 | -6.85202 | 119.89459 | 37879 ft | 469 kts | 296° |
| 2026-05-07 12:01 | -6.82267 | 119.83593 | 37878 ft | 469 kts | 296° |
| 2026-05-07 12:01 | -6.79350 | 119.77763 | 37879 ft | 470 kts | 296° |
| 2026-05-07 12:02 | -6.76418 | 119.71902 | 37878 ft | 469 kts | 296° |
| 2026-05-07 12:02 | -6.73481 | 119.66039 | 37881 ft | 469 kts | 296° |
| 2026-05-07 12:03 | -6.70544 | 119.60176 | 37879 ft | 470 kts | 296° |
| 2026-05-07 12:03 | -6.67599 | 119.54302 | 37877 ft | 469 kts | 296° |
| 2026-05-07 12:04 | -6.64658 | 119.48434 | 37877 ft | 469 kts | 296° |
| 2026-05-07 12:04 | -6.61719 | 119.42574 | 37879 ft | 469 kts | 296° |
| 2026-05-07 12:05 | -6.58771 | 119.36699 | 37874 ft | 470 kts | 296° |
| 2026-05-07 12:05 | -6.55845 | 119.30866 | 37873 ft | 470 kts | 296° |
| 2026-05-07 12:06 | -6.52899 | 119.24997 | 37872 ft | 471 kts | 296° |
| 2026-05-07 12:06 | -6.49941 | 119.19116 | 37869 ft | 470 kts | 296° |
| 2026-05-07 12:07 | -6.46988 | 119.13236 | 37870 ft | 471 kts | 296° |
| 2026-05-07 12:07 | -6.44032 | 119.07354 | 37869 ft | 471 kts | 296° |
| 2026-05-07 12:08 | -6.41074 | 119.01474 | 37870 ft | 471 kts | 296° |
| 2026-05-07 12:08 | -6.38118 | 118.95595 | 37869 ft | 471 kts | 296° |
| 2026-05-07 12:09 | -6.35156 | 118.89704 | 37869 ft | 471 kts | 296° |
| 2026-05-07 12:09 | -6.32216 | 118.83860 | 37868 ft | 472 kts | 296° |
| 2026-05-07 12:10 | -6.29230 | 118.77932 | 37871 ft | 472 kts | 296° |
| 2026-05-07 12:10 | -6.26280 | 118.72076 | 37868 ft | 473 kts | 296° |
| 2026-05-07 12:11 | -6.23310 | 118.66182 | 37869 ft | 473 kts | 296° |
| 2026-05-07 12:11 | -6.20338 | 118.60281 | 37866 ft | 473 kts | 296° |
| 2026-05-07 12:12 | -6.17359 | 118.54371 | 37870 ft | 474 kts | 296° |
| 2026-05-07 12:12 | -6.14381 | 118.48463 | 37864 ft | 474 kts | 296° |
| 2026-05-07 12:13 | -6.11394 | 118.42543 | 37864 ft | 475 kts | 296° |
| 2026-05-07 12:13 | -6.08406 | 118.36626 | 37866 ft | 475 kts | 296° |
| 2026-05-07 12:14 | -6.05416 | 118.30702 | 37864 ft | 475 kts | 295° |
| 2026-05-07 12:14 | -6.02444 | 118.24816 | 37867 ft | 475 kts | 296° |
| 2026-05-07 12:15 | -5.99450 | 118.18891 | 37860 ft | 476 kts | 295° |
| 2026-05-07 12:15 | -5.96450 | 118.12956 | 37862 ft | 476 kts | 295° |
| 2026-05-07 12:16 | -5.93452 | 118.07018 | 37859 ft | 476 kts | 295° |
| 2026-05-07 12:16 | -5.90452 | 118.01084 | 37858 ft | 477 kts | 295° |
| 2026-05-07 12:17 | -5.87444 | 117.95138 | 37861 ft | 477 kts | 295° |
| 2026-05-07 12:17 | -5.84439 | 117.89194 | 37859 ft | 477 kts | 295° |
| 2026-05-07 12:18 | -5.81430 | 117.83247 | 37863 ft | 478 kts | 295° |
| 2026-05-07 12:18 | -5.78417 | 117.77296 | 37860 ft | 478 kts | 295° |
| 2026-05-07 12:19 | -5.75403 | 117.71345 | 37860 ft | 478 kts | 295° |
| 2026-05-07 12:19 | -5.72390 | 117.65397 | 37860 ft | 478 kts | 295° |
| 2026-05-07 12:20 | -5.69390 | 117.59478 | 37858 ft | 478 kts | 295° |
| 2026-05-07 12:20 | -5.66373 | 117.53527 | 37860 ft | 478 kts | 295° |
| 2026-05-07 12:21 | -5.63354 | 117.47573 | 37863 ft | 478 kts | 295° |
| 2026-05-07 12:21 | -5.60335 | 117.41621 | 37857 ft | 478 kts | 295° |
| 2026-05-07 12:22 | -5.57315 | 117.35666 | 37862 ft | 479 kts | 295° |
| 2026-05-07 12:22 | -5.54292 | 117.29708 | 37858 ft | 478 kts | 295° |
| 2026-05-07 12:23 | -5.51272 | 117.23761 | 37856 ft | 478 kts | 296° |
| 2026-05-07 12:23 | -5.48253 | 117.17813 | 37861 ft | 478 kts | 295° |
| 2026-05-07 12:24 | -5.45232 | 117.11866 | 37859 ft | 478 kts | 296° |
| 2026-05-07 12:24 | -5.42207 | 117.05914 | 37861 ft | 478 kts | 296° |
| 2026-05-07 12:25 | -5.39188 | 116.99973 | 37866 ft | 478 kts | 296° |
| 2026-05-07 12:25 | -5.36168 | 116.94035 | 37862 ft | 477 kts | 296° |
| 2026-05-07 12:26 | -5.33153 | 116.88105 | 37861 ft | 477 kts | 296° |
| 2026-05-07 12:26 | -5.30153 | 116.82209 | 37861 ft | 477 kts | 296° |
| 2026-05-07 12:27 | -5.27136 | 116.76278 | 37859 ft | 477 kts | 296° |
| 2026-05-07 12:27 | -5.24123 | 116.70357 | 37857 ft | 476 kts | 296° |
| 2026-05-07 12:28 | -5.21112 | 116.64439 | 37854 ft | 476 kts | 296° |
| 2026-05-07 12:28 | -5.18098 | 116.58520 | 37855 ft | 476 kts | 296° |
| 2026-05-07 12:29 | -5.15086 | 116.52611 | 37858 ft | 475 kts | 296° |
| 2026-05-07 12:29 | -5.12075 | 116.46701 | 37859 ft | 475 kts | 296° |
| 2026-05-07 12:30 | -5.09070 | 116.40805 | 37857 ft | 475 kts | 296° |
| 2026-05-07 12:30 | -5.06084 | 116.34948 | 37856 ft | 474 kts | 296° |
| 2026-05-07 12:31 | -5.03084 | 116.29061 | 37853 ft | 474 kts | 296° |
| 2026-05-07 12:31 | -5.00081 | 116.23173 | 37851 ft | 474 kts | 296° |
| 2026-05-07 12:32 | -4.97080 | 116.17295 | 37858 ft | 473 kts | 296° |
| 2026-05-07 12:32 | -4.94081 | 116.11417 | 37853 ft | 473 kts | 296° |
| 2026-05-07 12:33 | -4.89591 | 116.02618 | 37854 ft | 472 kts | 296° |
| 2026-05-07 12:33 | -4.86595 | 115.96754 | 37850 ft | 472 kts | 296° |
| 2026-05-07 12:34 | -4.83598 | 115.90890 | 37853 ft | 472 kts | 296° |
| 2026-05-07 12:34 | -4.80606 | 115.85035 | 37852 ft | 472 kts | 296° |
| 2026-05-07 12:35 | -4.77609 | 115.79166 | 37855 ft | 472 kts | 296° |
| 2026-05-07 12:35 | -4.74630 | 115.73337 | 37855 ft | 473 kts | 296° |
| 2026-05-07 12:36 | -4.71628 | 115.67469 | 37856 ft | 473 kts | 296° |
| 2026-05-07 12:36 | -4.68625 | 115.61600 | 37854 ft | 473 kts | 296° |
| 2026-05-07 12:37 | -4.65620 | 115.55723 | 37850 ft | 474 kts | 296° |
| 2026-05-07 12:37 | -4.62614 | 115.49847 | 37855 ft | 474 kts | 296° |
| 2026-05-07 12:38 | -4.59604 | 115.43969 | 37857 ft | 474 kts | 296° |
| 2026-05-07 12:38 | -4.56591 | 115.38087 | 37858 ft | 474 kts | 296° |
| 2026-05-07 12:39 | -4.53578 | 115.32201 | 37857 ft | 475 kts | 296° |
| 2026-05-07 12:39 | -4.50559 | 115.26305 | 37855 ft | 475 kts | 296° |
| 2026-05-07 12:40 | -4.47537 | 115.20403 | 37862 ft | 476 kts | 296° |
| 2026-05-07 12:40 | -4.44511 | 115.14503 | 37852 ft | 476 kts | 296° |
| 2026-05-07 12:41 | -4.41499 | 115.08630 | 37854 ft | 477 kts | 296° |
| 2026-05-07 12:41 | -4.38448 | 115.02676 | 37853 ft | 477 kts | 296° |
| 2026-05-07 12:42 | -4.35434 | 114.96794 | 37857 ft | 478 kts | 297° |
| 2026-05-07 12:42 | -4.32421 | 114.90860 | 37854 ft | 478 kts | 296° |
| 2026-05-07 12:43 | -4.29493 | 114.84867 | 37858 ft | 479 kts | 295° |
| 2026-05-07 12:43 | -4.27035 | 114.79839 | 37856 ft | 480 kts | 296° |
| 2026-05-07 12:44 | -4.24085 | 114.73834 | 37858 ft | 481 kts | 296° |
| 2026-05-07 12:44 | -4.21127 | 114.67823 | 37859 ft | 481 kts | 296° |
| 2026-05-07 12:45 | -4.18167 | 114.61808 | 37861 ft | 482 kts | 296° |
| 2026-05-07 12:45 | -4.15222 | 114.55825 | 37861 ft | 482 kts | 296° |
| 2026-05-07 12:46 | -4.12256 | 114.49802 | 37856 ft | 482 kts | 296° |
| 2026-05-07 12:46 | -4.09287 | 114.43772 | 37859 ft | 483 kts | 296° |
| 2026-05-07 12:47 | -4.06316 | 114.37740 | 37856 ft | 483 kts | 296° |
| 2026-05-07 12:47 | -4.03337 | 114.31693 | 37857 ft | 484 kts | 296° |
| 2026-05-07 12:48 | -4.00356 | 114.25645 | 37861 ft | 484 kts | 296° |
| 2026-05-07 12:48 | -3.97375 | 114.19598 | 37864 ft | 484 kts | 296° |
| 2026-05-07 12:49 | -3.94393 | 114.13549 | 37861 ft | 484 kts | 296° |
| 2026-05-07 12:49 | -3.91410 | 114.07500 | 37864 ft | 484 kts | 296° |
| 2026-05-07 12:50 | -3.88428 | 114.01455 | 37864 ft | 484 kts | 296° |
| 2026-05-07 12:50 | -3.85448 | 113.95415 | 37862 ft | 483 kts | 296° |
| 2026-05-07 12:51 | -3.82485 | 113.89411 | 37863 ft | 483 kts | 296° |
| 2026-05-07 12:51 | -3.79504 | 113.83369 | 37857 ft | 484 kts | 296° |
| 2026-05-07 12:52 | -3.76523 | 113.77331 | 37859 ft | 484 kts | 296° |
| 2026-05-07 12:52 | -3.73538 | 113.71288 | 37852 ft | 484 kts | 296° |
| 2026-05-07 12:53 | -3.70551 | 113.65240 | 37857 ft | 485 kts | 296° |
| 2026-05-07 12:53 | -3.67557 | 113.59178 | 37851 ft | 486 kts | 297° |
| 2026-05-07 12:54 | -3.64559 | 113.53109 | 37853 ft | 486 kts | 297° |
| 2026-05-07 12:54 | -3.61556 | 113.47032 | 37856 ft | 488 kts | 297° |
| 2026-05-07 12:55 | -3.58541 | 113.40931 | 37857 ft | 489 kts | 297° |
| 2026-05-07 12:55 | -3.55518 | 113.34818 | 37855 ft | 489 kts | 297° |
| 2026-05-07 12:56 | -3.52498 | 113.28711 | 37855 ft | 490 kts | 297° |
| 2026-05-07 12:56 | -3.49492 | 113.22634 | 37863 ft | 491 kts | 297° |
| 2026-05-07 12:57 | -3.46463 | 113.16512 | 37857 ft | 490 kts | 297° |
| 2026-05-07 12:57 | -3.43434 | 113.10390 | 37857 ft | 491 kts | 297° |
| 2026-05-07 12:58 | -3.40405 | 113.04270 | 37859 ft | 490 kts | 297° |
| 2026-05-07 12:58 | -3.37374 | 112.98144 | 37858 ft | 491 kts | 297° |
| 2026-05-07 12:59 | -3.34346 | 112.92028 | 37859 ft | 491 kts | 297° |
| 2026-05-07 12:59 | -3.31316 | 112.85909 | 37858 ft | 490 kts | 297° |
| 2026-05-07 13:00 | -3.28306 | 112.79831 | 37863 ft | 490 kts | 297° |
| 2026-05-07 13:00 | -3.25280 | 112.73722 | 37866 ft | 490 kts | 297° |
| 2026-05-07 13:01 | -3.22259 | 112.67623 | 37861 ft | 489 kts | 297° |
| 2026-05-07 13:01 | -3.19236 | 112.61523 | 37864 ft | 489 kts | 297° |
| 2026-05-07 13:02 | -3.16214 | 112.55426 | 37862 ft | 489 kts | 297° |
| 2026-05-07 13:02 | -3.13194 | 112.49333 | 37861 ft | 489 kts | 297° |
| 2026-05-07 13:03 | -3.10172 | 112.43238 | 37863 ft | 489 kts | 297° |
| 2026-05-07 13:03 | -3.07150 | 112.37143 | 37860 ft | 489 kts | 297° |
| 2026-05-07 13:04 | -3.04127 | 112.31047 | 37861 ft | 489 kts | 297° |
| 2026-05-07 13:04 | -3.01029 | 112.24987 | 37865 ft | 489 kts | 298° |
| 2026-05-07 13:05 | -2.97875 | 112.18953 | 37868 ft | 490 kts | 298° |
| 2026-05-07 13:05 | -2.94732 | 112.12906 | 37867 ft | 490 kts | 298° |
| 2026-05-07 13:06 | -2.91596 | 112.06857 | 37872 ft | 490 kts | 298° |
| 2026-05-07 13:06 | -2.88457 | 112.00803 | 37873 ft | 490 kts | 298° |
| 2026-05-07 13:07 | -2.85321 | 111.94754 | 37868 ft | 490 kts | 298° |
| 2026-05-07 13:07 | -2.82181 | 111.88696 | 37871 ft | 490 kts | 298° |
| 2026-05-07 13:08 | -2.79040 | 111.82642 | 37864 ft | 490 kts | 298° |
| 2026-05-07 13:08 | -2.75919 | 111.76625 | 37868 ft | 490 kts | 298° |
| 2026-05-07 13:09 | -2.72778 | 111.70571 | 37877 ft | 490 kts | 298° |
| 2026-05-07 13:09 | -2.69231 | 111.64760 | 37868 ft | 489 kts | 304° |
| 2026-05-07 13:10 | -2.65496 | 111.59081 | 37870 ft | 488 kts | 304° |
| 2026-05-07 13:10 | -2.61775 | 111.53395 | 37871 ft | 488 kts | 304° |
| 2026-05-07 13:11 | -2.58055 | 111.47711 | 37872 ft | 488 kts | 304° |
| 2026-05-07 13:11 | -2.54339 | 111.42036 | 37872 ft | 488 kts | 304° |
| 2026-05-07 13:12 | -2.50624 | 111.36364 | 37869 ft | 487 kts | 304° |
| 2026-05-07 13:12 | -2.46908 | 111.30690 | 37869 ft | 488 kts | 304° |
| 2026-05-07 13:13 | -2.43217 | 111.25056 | 37866 ft | 488 kts | 304° |
| 2026-05-07 13:13 | -2.39497 | 111.19379 | 37865 ft | 488 kts | 304° |
| 2026-05-07 13:14 | -2.35776 | 111.13700 | 37868 ft | 488 kts | 304° |
| 2026-05-07 13:14 | -2.32050 | 111.08014 | 37865 ft | 489 kts | 304° |
| 2026-05-07 13:15 | -2.28321 | 111.02325 | 37865 ft | 489 kts | 304° |
| 2026-05-07 13:15 | -2.24590 | 110.96632 | 37870 ft | 489 kts | 304° |
| 2026-05-07 13:16 | -2.20852 | 110.90946 | 37867 ft | 489 kts | 304° |
| 2026-05-07 13:16 | -2.17106 | 110.85266 | 37869 ft | 489 kts | 304° |
| 2026-05-07 13:17 | -2.13361 | 110.79583 | 37869 ft | 489 kts | 304° |
| 2026-05-07 13:17 | -2.09616 | 110.73900 | 37875 ft | 489 kts | 304° |
| 2026-05-07 13:18 | -2.05872 | 110.68218 | 37870 ft | 488 kts | 304° |
| 2026-05-07 13:18 | -2.02137 | 110.62552 | 37867 ft | 488 kts | 304° |
| 2026-05-07 13:19 | -1.98403 | 110.56886 | 37863 ft | 487 kts | 304° |
| 2026-05-07 13:19 | -1.94672 | 110.51228 | 37866 ft | 487 kts | 304° |
| 2026-05-07 13:20 | -1.90948 | 110.45578 | 37859 ft | 487 kts | 304° |
| 2026-05-07 13:20 | -1.87219 | 110.39923 | 37862 ft | 486 kts | 304° |
| 2026-05-07 13:21 | -1.83523 | 110.34317 | 37859 ft | 486 kts | 304° |
| 2026-05-07 13:21 | -1.79801 | 110.28674 | 37857 ft | 486 kts | 304° |
| 2026-05-07 13:22 | -1.76079 | 110.23030 | 37854 ft | 486 kts | 304° |
| 2026-05-07 13:22 | -1.72355 | 110.17384 | 37856 ft | 486 kts | 304° |
| 2026-05-07 13:23 | -1.68636 | 110.11745 | 37854 ft | 486 kts | 304° |
| 2026-05-07 13:23 | -1.64908 | 110.06092 | 37853 ft | 486 kts | 304° |
| 2026-05-07 13:24 | -1.61179 | 110.00438 | 37848 ft | 486 kts | 304° |
| 2026-05-07 13:24 | -1.57454 | 109.94789 | 37854 ft | 487 kts | 304° |
| 2026-05-07 13:25 | -1.53752 | 109.89176 | 37850 ft | 487 kts | 304° |
| 2026-05-07 13:25 | -1.50027 | 109.83529 | 37847 ft | 487 kts | 304° |
| 2026-05-07 13:26 | -1.46298 | 109.77877 | 37847 ft | 487 kts | 304° |
| 2026-05-07 13:26 | -1.42562 | 109.72213 | 37845 ft | 488 kts | 304° |
| 2026-05-07 13:27 | -1.38823 | 109.66547 | 37844 ft | 488 kts | 304° |
| 2026-05-07 13:27 | -1.35080 | 109.60874 | 37844 ft | 489 kts | 304° |
| 2026-05-07 13:28 | -1.31337 | 109.55201 | 37841 ft | 489 kts | 304° |
| 2026-05-07 13:28 | -1.27588 | 109.49519 | 37846 ft | 489 kts | 304° |
| 2026-05-07 13:29 | -1.23843 | 109.43846 | 37852 ft | 489 kts | 304° |
| 2026-05-07 13:29 | -1.20099 | 109.38172 | 37847 ft | 489 kts | 304° |
| 2026-05-07 13:30 | -1.16984 | 109.33453 | 37851 ft | 489 kts | 304° |
| 2026-05-07 13:30 | -1.13243 | 109.27784 | 37849 ft | 488 kts | 304° |
| 2026-05-07 13:31 | -1.09506 | 109.22122 | 37851 ft | 488 kts | 304° |
| 2026-05-07 13:31 | -1.05772 | 109.16466 | 37853 ft | 487 kts | 303° |
| 2026-05-07 13:32 | -1.02041 | 109.10814 | 37855 ft | 486 kts | 303° |
| 2026-05-07 13:32 | -0.98346 | 109.05202 | 37851 ft | 486 kts | 303° |
| 2026-05-07 13:33 | -0.94642 | 108.99559 | 37851 ft | 485 kts | 303° |
| 2026-05-07 13:33 | -0.90942 | 108.93925 | 37848 ft | 485 kts | 303° |
| 2026-05-07 13:34 | -0.85396 | 108.85478 | 37849 ft | 484 kts | 303° |
| 2026-05-07 13:35 | -0.81716 | 108.79851 | 37848 ft | 484 kts | 303° |
| 2026-05-07 13:35 | -0.78031 | 108.74220 | 37845 ft | 484 kts | 303° |
| 2026-05-07 13:36 | -0.74349 | 108.68594 | 37848 ft | 484 kts | 303° |
| 2026-05-07 13:36 | -0.70668 | 108.62971 | 37850 ft | 483 kts | 303° |
| 2026-05-07 13:37 | -0.66991 | 108.57354 | 37848 ft | 483 kts | 303° |
| 2026-05-07 13:37 | -0.63314 | 108.51736 | 37848 ft | 483 kts | 303° |
| 2026-05-07 13:38 | -0.59648 | 108.46162 | 37850 ft | 482 kts | 303° |
| 2026-05-07 13:38 | -0.55929 | 108.40529 | 37847 ft | 482 kts | 303° |
| 2026-05-07 13:39 | -0.52266 | 108.34974 | 37848 ft | 482 kts | 303° |
| 2026-05-07 13:39 | -0.48576 | 108.29376 | 37847 ft | 482 kts | 303° |
| 2026-05-07 13:40 | -0.44890 | 108.23785 | 37847 ft | 482 kts | 303° |
| 2026-05-07 13:40 | -0.41178 | 108.18155 | 37844 ft | 482 kts | 303° |
| 2026-05-07 13:41 | -0.37510 | 108.12590 | 37848 ft | 482 kts | 303° |
| 2026-05-07 13:41 | -0.33822 | 108.06996 | 37848 ft | 482 kts | 303° |
| 2026-05-07 13:42 | -0.30129 | 108.01395 | 37847 ft | 482 kts | 303° |
| 2026-05-07 13:42 | -0.26435 | 107.95791 | 37847 ft | 482 kts | 303° |
| 2026-05-07 13:43 | -0.22748 | 107.90199 | 37848 ft | 482 kts | 303° |
| 2026-05-07 13:43 | -0.19063 | 107.84611 | 37850 ft | 482 kts | 303° |
| 2026-05-07 13:44 | -0.15402 | 107.79057 | 37848 ft | 482 kts | 303° |
| 2026-05-07 13:44 | -0.11716 | 107.73466 | 37851 ft | 482 kts | 303° |
| 2026-05-07 13:45 | -0.08016 | 107.67886 | 37847 ft | 481 kts | 303° |
| 2026-05-07 13:45 | -0.04306 | 107.62320 | 37849 ft | 481 kts | 303° |
| 2026-05-07 13:46 | -0.00599 | 107.56751 | 37845 ft | 481 kts | 303° |
| 2026-05-07 13:46 | 0.03108 | 107.51179 | 37849 ft | 481 kts | 303° |
| 2026-05-07 13:47 | 0.06812 | 107.45612 | 37849 ft | 481 kts | 303° |
| 2026-05-07 13:47 | 0.10516 | 107.40044 | 37847 ft | 481 kts | 303° |
| 2026-05-07 13:48 | 0.14221 | 107.34476 | 37848 ft | 481 kts | 303° |
| 2026-05-07 13:48 | 0.17922 | 107.28913 | 37845 ft | 481 kts | 303° |
| 2026-05-07 13:49 | 0.21624 | 107.23347 | 37845 ft | 481 kts | 303° |
| 2026-05-07 13:49 | 0.25332 | 107.17774 | 37847 ft | 481 kts | 303° |
| 2026-05-07 13:50 | 0.29033 | 107.12210 | 37849 ft | 481 kts | 303° |
| 2026-05-07 13:50 | 0.32736 | 107.06644 | 37847 ft | 481 kts | 303° |
| 2026-05-07 13:51 | 0.36445 | 107.01068 | 37847 ft | 481 kts | 303° |
| 2026-05-07 13:51 | 0.39960 | 106.95393 | 37847 ft | 481 kts | 296° |
| 2026-05-07 13:52 | 0.42428 | 106.89191 | 37845 ft | 481 kts | 286° |
| 2026-05-07 13:52 | 0.43851 | 106.82672 | 37847 ft | 481 kts | 281° |
| 2026-05-07 13:53 | 0.45152 | 106.76167 | 37848 ft | 481 kts | 281° |
| 2026-05-07 13:53 | 0.46476 | 106.69609 | 37849 ft | 481 kts | 281° |
| 2026-05-07 13:54 | 0.47797 | 106.63054 | 37852 ft | 482 kts | 281° |
| 2026-05-07 13:54 | 0.49118 | 106.56494 | 37849 ft | 482 kts | 281° |
| 2026-05-07 13:55 | 0.50432 | 106.49963 | 37848 ft | 482 kts | 281° |
| 2026-05-07 13:55 | 0.51754 | 106.43394 | 37850 ft | 482 kts | 281° |
| 2026-05-07 13:56 | 0.53077 | 106.36820 | 37848 ft | 482 kts | 281° |
| 2026-05-07 13:56 | 0.54400 | 106.30247 | 37850 ft | 483 kts | 281° |
| 2026-05-07 13:57 | 0.55724 | 106.23667 | 37852 ft | 483 kts | 281° |
| 2026-05-07 13:57 | 0.57049 | 106.17082 | 37854 ft | 483 kts | 281° |
| 2026-05-07 13:58 | 0.58373 | 106.10504 | 37845 ft | 483 kts | 281° |
| 2026-05-07 13:58 | 0.59699 | 106.03914 | 37849 ft | 483 kts | 281° |
| 2026-05-07 13:59 | 0.61023 | 105.97330 | 37855 ft | 484 kts | 281° |
| 2026-05-07 13:59 | 0.62341 | 105.90778 | 37858 ft | 484 kts | 281° |
| 2026-05-07 14:00 | 0.63666 | 105.84189 | 37857 ft | 484 kts | 281° |
| 2026-05-07 14:00 | 0.64991 | 105.77601 | 37854 ft | 484 kts | 281° |
| 2026-05-07 14:01 | 0.66319 | 105.71001 | 37853 ft | 484 kts | 281° |
| 2026-05-07 14:01 | 0.67645 | 105.64407 | 37855 ft | 484 kts | 281° |
| 2026-05-07 14:02 | 0.68974 | 105.57801 | 37854 ft | 485 kts | 281° |
| 2026-05-07 14:02 | 0.70301 | 105.51199 | 37852 ft | 485 kts | 281° |
| 2026-05-07 14:03 | 0.71630 | 105.44595 | 37858 ft | 485 kts | 281° |
| 2026-05-07 14:03 | 0.72959 | 105.37988 | 37855 ft | 485 kts | 281° |
| 2026-05-07 14:04 | 0.74287 | 105.31390 | 37852 ft | 485 kts | 281° |
| 2026-05-07 14:04 | 0.75616 | 105.24784 | 37851 ft | 485 kts | 281° |
| 2026-05-07 14:05 | 0.76945 | 105.18179 | 37859 ft | 485 kts | 281° |
| 2026-05-07 14:05 | 0.78275 | 105.11564 | 37863 ft | 485 kts | 281° |
| 2026-05-07 14:06 | 0.79604 | 105.04956 | 37854 ft | 485 kts | 281° |
| 2026-05-07 14:06 | 0.80934 | 104.98346 | 37856 ft | 485 kts | 281° |
| 2026-05-07 14:07 | 0.82256 | 104.91771 | 37860 ft | 485 kts | 281° |
| 2026-05-07 14:07 | 0.83585 | 104.85161 | 37860 ft | 486 kts | 281° |
| 2026-05-07 14:08 | 0.84916 | 104.78541 | 37876 ft | 485 kts | 281° |
| 2026-05-07 14:08 | 0.86246 | 104.71928 | 37880 ft | 486 kts | 281° |
| 2026-05-07 14:09 | 0.87575 | 104.65314 | 37882 ft | 486 kts | 281° |
| 2026-05-07 14:09 | 0.88907 | 104.58688 | 37887 ft | 486 kts | 281° |
| 2026-05-07 14:10 | 0.90452 | 104.52124 | 37884 ft | 486 kts | 287° |
| 2026-05-07 14:10 | 0.93028 | 104.45883 | 37883 ft | 486 kts | 296° |
| 2026-05-07 14:11 | 0.95995 | 104.39804 | 37879 ft | 487 kts | 296° |
| 2026-05-07 14:11 | 0.98934 | 104.33712 | 37875 ft | 487 kts | 296° |
| 2026-05-07 14:12 | 1.01879 | 104.27608 | 37875 ft | 487 kts | 296° |
| 2026-05-07 14:12 | 1.04826 | 104.21505 | 37880 ft | 488 kts | 296° |
| 2026-05-07 14:13 | 1.07775 | 104.15401 | 37885 ft | 488 kts | 296° |
| 2026-05-07 14:13 | 1.10726 | 104.09297 | 37886 ft | 488 kts | 296° |
| 2026-05-07 14:14 | 1.13659 | 104.03229 | 37887 ft | 488 kts | 296° |
| 2026-05-07 14:14 | 1.16614 | 103.97115 | 37879 ft | 488 kts | 296° |
| 2026-05-07 14:15 | 1.19564 | 103.91010 | 37896 ft | 488 kts | 296° |
| 2026-05-07 14:15 | 1.22283 | 103.86037 | 37898 ft | 487 kts | 307° |
| 2026-05-07 14:15 | 1.25345 | 103.82788 | 37900 ft | 486 kts | 321° |
| 2026-05-07 14:16 | 1.27157 | 103.81486 | 37908 ft | 485 kts | 329° |
| 2026-05-07 14:16 | 1.30170 | 103.79983 | 37905 ft | 483 kts | 340° |
| 2026-05-07 14:16 | 1.33323 | 103.78870 | 37710 ft | 479 kts | 342° |
| 2026-05-07 14:16 | 1.36462 | 103.77745 | 37084 ft | 479 kts | 340° |
| 2026-05-07 14:17 | 1.39541 | 103.76463 | 36286 ft | 481 kts | 336° |
| 2026-05-07 14:17 | 1.42572 | 103.75033 | 35435 ft | 482 kts | 335° |
| 2026-05-07 14:17 | 1.45577 | 103.73525 | 34512 ft | 485 kts | 334° |
| 2026-05-07 14:17 | 1.48584 | 103.71989 | 33657 ft | 486 kts | 335° |
| 2026-05-07 14:18 | 1.51711 | 103.70694 | 33172 ft | 488 kts | 342° |
| 2026-05-07 14:18 | 1.54976 | 103.69670 | 32983 ft | 495 kts | 344° |
| 2026-05-07 14:18 | 1.58265 | 103.68650 | 32887 ft | 495 kts | 343° |
| 2026-05-07 14:19 | 1.64541 | 103.65891 | 32584 ft | 493 kts | 327° |
| 2026-05-07 14:19 | 1.67223 | 103.63761 | 31853 ft | 493 kts | 317° |
| 2026-05-07 14:19 | 1.69476 | 103.61177 | 30922 ft | 495 kts | 306° |
| 2026-05-07 14:19 | 1.71189 | 103.58217 | 30196 ft | 491 kts | 295° |
| 2026-05-07 14:20 | 1.72495 | 103.55116 | 29400 ft | 486 kts | 292° |
| 2026-05-07 14:20 | 1.73727 | 103.51948 | 28578 ft | 481 kts | 291° |
| 2026-05-07 14:20 | 1.74928 | 103.48928 | 27801 ft | 476 kts | 292° |
| 2026-05-07 14:20 | 1.76186 | 103.45884 | 27013 ft | 472 kts | 293° |
| 2026-05-07 14:21 | 1.77467 | 103.42872 | 26259 ft | 467 kts | 294° |
| 2026-05-07 14:21 | 1.78747 | 103.39908 | 25509 ft | 463 kts | 294° |
| 2026-05-07 14:21 | 1.80025 | 103.36966 | 24760 ft | 459 kts | 294° |
| 2026-05-07 14:21 | 1.81291 | 103.34058 | 24043 ft | 455 kts | 294° |
| 2026-05-07 14:22 | 1.82547 | 103.31170 | 23302 ft | 451 kts | 294° |
| 2026-05-07 14:22 | 1.83791 | 103.28309 | 22505 ft | 446 kts | 294° |
| 2026-05-07 14:22 | 1.85017 | 103.25487 | 21732 ft | 440 kts | 294° |
| 2026-05-07 14:22 | 1.86227 | 103.22700 | 20956 ft | 434 kts | 294° |
| 2026-05-07 14:23 | 1.87425 | 103.19942 | 20165 ft | 429 kts | 294° |
| 2026-05-07 14:23 | 1.88594 | 103.17251 | 19425 ft | 424 kts | 294° |
| 2026-05-07 14:23 | 1.89761 | 103.14561 | 18680 ft | 419 kts | 294° |
| 2026-05-07 14:23 | 1.90915 | 103.11903 | 17883 ft | 415 kts | 294° |
| 2026-05-07 14:24 | 1.92054 | 103.09279 | 17072 ft | 409 kts | 294° |
| 2026-05-07 14:24 | 1.93168 | 103.06715 | 16279 ft | 402 kts | 294° |
| 2026-05-07 14:24 | 1.94284 | 103.04145 | 15504 ft | 397 kts | 294° |
| 2026-05-07 14:24 | 1.95370 | 103.01644 | 15102 ft | 392 kts | 294° |
| 2026-05-07 14:25 | 1.96462 | 102.99131 | 15008 ft | 394 kts | 294° |
| 2026-05-07 14:25 | 1.97185 | 102.97467 | 14983 ft | 393 kts | 294° |
| 2026-05-07 14:25 | 1.98618 | 102.94166 | 14465 ft | 389 kts | 294° |
| 2026-05-07 14:25 | 1.99688 | 102.91701 | 13853 ft | 384 kts | 294° |
| 2026-05-07 14:26 | 2.00747 | 102.89262 | 13013 ft | 379 kts | 294° |
| 2026-05-07 14:26 | 2.01787 | 102.86866 | 12191 ft | 374 kts | 294° |
| 2026-05-07 14:26 | 2.02817 | 102.84495 | 11394 ft | 368 kts | 294° |
| 2026-05-07 14:26 | 2.03829 | 102.82165 | 10599 ft | 363 kts | 294° |
| 2026-05-07 14:27 | 2.04817 | 102.79891 | 10217 ft | 346 kts | 294° |
| 2026-05-07 14:27 | 2.05744 | 102.77752 | 10022 ft | 324 kts | 294° |
| 2026-05-07 14:27 | 2.06612 | 102.75753 | 9803 ft | 304 kts | 294° |
| 2026-05-07 14:27 | 2.07440 | 102.73844 | 9307 ft | 296 kts | 294° |
| 2026-05-07 14:28 | 2.08258 | 102.71961 | 9088 ft | 298 kts | 294° |
| 2026-05-07 14:28 | 2.09082 | 102.70065 | 9021 ft | 296 kts | 294° |
| 2026-05-07 14:28 | 2.09903 | 102.68173 | 9011 ft | 296 kts | 294° |
| 2026-05-07 14:28 | 2.10722 | 102.66285 | 9013 ft | 297 kts | 294° |
| 2026-05-07 14:29 | 2.11543 | 102.64391 | 9013 ft | 296 kts | 294° |
| 2026-05-07 14:29 | 2.12363 | 102.62501 | 9004 ft | 297 kts | 294° |
| 2026-05-07 14:29 | 2.13185 | 102.60606 | 9012 ft | 297 kts | 294° |
| 2026-05-07 14:29 | 2.14006 | 102.58713 | 9012 ft | 296 kts | 294° |
| 2026-05-07 14:30 | 2.14826 | 102.56822 | 9010 ft | 297 kts | 294° |
| 2026-05-07 14:30 | 2.15646 | 102.54931 | 9012 ft | 297 kts | 294° |
| 2026-05-07 14:30 | 2.16467 | 102.53037 | 9008 ft | 297 kts | 294° |
| 2026-05-07 14:30 | 2.17288 | 102.51144 | 9010 ft | 297 kts | 294° |
| 2026-05-07 14:31 | 2.18109 | 102.49250 | 9009 ft | 297 kts | 294° |
| 2026-05-07 14:31 | 2.18929 | 102.47358 | 9012 ft | 297 kts | 294° |
| 2026-05-07 14:31 | 2.19751 | 102.45464 | 9013 ft | 297 kts | 294° |
| 2026-05-07 14:31 | 2.20560 | 102.43598 | 9011 ft | 297 kts | 294° |
| 2026-05-07 14:32 | 2.21382 | 102.41702 | 9013 ft | 297 kts | 294° |
| 2026-05-07 14:32 | 2.22203 | 102.39808 | 9007 ft | 297 kts | 294° |
| 2026-05-07 14:32 | 2.23023 | 102.37916 | 9009 ft | 297 kts | 294° |
| 2026-05-07 14:32 | 2.23845 | 102.36019 | 9014 ft | 297 kts | 294° |
| 2026-05-07 14:33 | 2.24667 | 102.34124 | 9011 ft | 297 kts | 294° |
| 2026-05-07 14:33 | 2.25488 | 102.32229 | 9012 ft | 297 kts | 294° |
| 2026-05-07 14:33 | 2.26304 | 102.30345 | 8810 ft | 294 kts | 294° |
| 2026-05-07 14:33 | 2.27116 | 102.28474 | 8387 ft | 291 kts | 294° |
| 2026-05-07 14:34 | 2.27917 | 102.26624 | 7769 ft | 288 kts | 293° |
| 2026-05-07 14:34 | 2.28712 | 102.24791 | 7115 ft | 286 kts | 293° |
| 2026-05-07 14:34 | 2.29500 | 102.22976 | 6504 ft | 282 kts | 293° |
| 2026-05-07 14:34 | 2.30262 | 102.21217 | 6158 ft | 267 kts | 293° |
| 2026-05-07 14:35 | 2.30973 | 102.19578 | 6025 ft | 246 kts | 292° |
| 2026-05-07 14:35 | 2.31631 | 102.18062 | 6007 ft | 236 kts | 292° |
| 2026-05-07 14:35 | 2.32277 | 102.16569 | 6006 ft | 238 kts | 292° |
| 2026-05-07 14:35 | 2.32937 | 102.15045 | 6010 ft | 237 kts | 292° |
| 2026-05-07 14:36 | 2.33584 | 102.13552 | 6004 ft | 237 kts | 292° |
| 2026-05-07 14:36 | 2.34237 | 102.12042 | 6003 ft | 237 kts | 292° |
| 2026-05-07 14:36 | 2.34891 | 102.10531 | 6002 ft | 237 kts | 292° |
| 2026-05-07 14:36 | 2.35545 | 102.09018 | 5999 ft | 237 kts | 292° |
| 2026-05-07 14:37 | 2.36199 | 102.07508 | 6005 ft | 237 kts | 292° |
| 2026-05-07 14:37 | 2.37501 | 102.04499 | 5838 ft | 233 kts | 292° |
| 2026-05-07 14:37 | 2.38057 | 102.02977 | 5458 ft | 233 kts | 288° |
| 2026-05-07 14:38 | 2.38592 | 102.01443 | 5073 ft | 233 kts | 288° |
| 2026-05-07 14:38 | 2.39125 | 101.99918 | 4693 ft | 232 kts | 288° |
| 2026-05-07 14:38 | 2.39657 | 101.98403 | 4325 ft | 231 kts | 288° |
| 2026-05-07 14:38 | 2.40190 | 101.96892 | 3944 ft | 230 kts | 289° |
| 2026-05-07 14:39 | 2.40747 | 101.95397 | 3568 ft | 229 kts | 293° |
| 2026-05-07 14:39 | 2.41591 | 101.94052 | 3192 ft | 229 kts | 310° |
| 2026-05-07 14:39 | 2.42658 | 101.92911 | 3031 ft | 219 kts | 313° |
| 2026-05-07 14:39 | 2.43671 | 101.91830 | 2992 ft | 206 kts | 312° |
| 2026-05-07 14:40 | 2.44617 | 101.90800 | 2995 ft | 201 kts | 312° |
| 2026-05-07 14:40 | 2.45561 | 101.89744 | 2991 ft | 202 kts | 311° |
| 2026-05-07 14:40 | 2.46492 | 101.88695 | 2990 ft | 204 kts | 311° |
| 2026-05-07 14:40 | 2.47526 | 101.87732 | 2996 ft | 202 kts | 323° |
| 2026-05-07 14:41 | 2.48704 | 101.86954 | 3001 ft | 203 kts | 328° |
| 2026-05-07 14:41 | 2.49899 | 101.86218 | 2994 ft | 202 kts | 328° |
| 2026-05-07 14:41 | 2.51085 | 101.85462 | 2995 ft | 202 kts | 327° |
| 2026-05-07 14:41 | 2.52254 | 101.84677 | 2997 ft | 203 kts | 326° |
| 2026-05-07 14:42 | 2.53425 | 101.83883 | 2998 ft | 203 kts | 326° |
| 2026-05-07 14:42 | 2.54592 | 101.83098 | 2993 ft | 202 kts | 326° |
| 2026-05-07 14:42 | 2.55758 | 101.82312 | 2994 ft | 202 kts | 326° |
| 2026-05-07 14:42 | 2.56923 | 101.81526 | 2996 ft | 202 kts | 326° |
| 2026-05-07 14:43 | 2.58090 | 101.80741 | 2989 ft | 202 kts | 326° |
| 2026-05-07 14:43 | 2.59258 | 101.79952 | 2807 ft | 202 kts | 326° |
| 2026-05-07 14:43 | 2.60418 | 101.79172 | 2536 ft | 199 kts | 326° |
| 2026-05-07 14:43 | 2.61555 | 101.78403 | 2280 ft | 193 kts | 326° |
| 2026-05-07 14:44 | 2.62633 | 101.77680 | 2040 ft | 179 kts | 326° |
| 2026-05-07 14:44 | 2.63609 | 101.77020 | 1806 ft | 161 kts | 326° |
| 2026-05-07 14:44 | 2.64515 | 101.76407 | 1623 ft | 159 kts | 326° |
| 2026-05-07 14:44 | 2.65407 | 101.75809 | 1407 ft | 153 kts | 326° |
| 2026-05-07 14:45 | 2.66298 | 101.75208 | 1215 ft | 152 kts | 326° |
| 2026-05-07 14:45 | 2.67177 | 101.74615 | 1031 ft | 155 kts | 326° |
| 2026-05-07 14:45 | 2.67996 | 101.74062 | 860 ft | 150 kts | 327° |
| 2026-05-07 14:45 | 2.68864 | 101.73471 | 665 ft | 148 kts | 327° |
| 2026-05-07 14:46 | 2.69722 | 101.72891 | 428 ft | 153 kts | 327° |
| 2026-05-07 14:46 | 2.70573 | 101.72315 | 237 ft | 145 kts | 330° |
| 2026-05-07 14:46 | 2.71442 | 101.71730 | 93 ft | 151 kts | 326° |
| 2026-05-07 14:46 | 2.72249 | 101.71186 | 56 ft | 120 kts | 326° |
| 2026-05-07 14:47 | 2.72788 | 101.70831 | 59 ft | 69 kts | 327° |
| 2026-05-07 14:47 | 2.73140 | 101.70588 | 58 ft | 60 kts | 326° |
| 2026-05-07 14:47 | 2.73465 | 101.70466 | 62 ft | 39 kts | 358° |
| 2026-05-07 14:47 | 2.73522 | 101.70461 | 61 ft | 3 kts | 355° |
| 2026-05-07 14:48 | 2.73567 | 101.70457 | 63 ft | 9 kts | 355° |
| 2026-05-07 14:48 | 2.73656 | 101.70450 | 56 ft | 14 kts | 355° |
| 2026-05-07 14:48 | 2.73734 | 101.70423 | 56 ft | 10 kts | 331° |
| 2026-05-07 14:48 | 2.73791 | 101.70385 | 55 ft | 10 kts | 326° |
| 2026-05-07 14:49 | 2.73851 | 101.70346 | 56 ft | 12 kts | 326° |
| 2026-05-07 14:49 | 2.73939 | 101.70288 | 54 ft | 19 kts | 327° |
| 2026-05-07 14:49 | 2.74052 | 101.70214 | 55 ft | 21 kts | 327° |
| 2026-05-07 14:49 | 2.74176 | 101.70127 | 62 ft | 22 kts | 327° |
| 2026-05-07 14:50 | 2.74262 | 101.70070 | 57 ft | 10 kts | 326° |
| 2026-05-07 14:50 | 2.74280 | 101.70058 | 61 ft | 4 kts | 326° |
| 2026-05-07 14:50 | 2.74309 | 101.70038 | 57 ft | 0 kts | 326° |
| 2026-05-07 14:51 | 2.74326 | 101.70027 | 62 ft | 10 kts | 326° |
| 2026-05-07 14:51 | 2.74419 | 101.70027 | 59 ft | 15 kts | 37° |
| 2026-05-07 14:52 | 2.74463 | 101.70102 | 60 ft | 13 kts | 58° |
| 2026-05-07 14:52 | 2.74513 | 101.70179 | 64 ft | 14 kts | 57° |
| 2026-05-07 14:52 | 2.74574 | 101.70264 | 68 ft | 16 kts | 54° |
| 2026-05-07 14:52 | 2.74650 | 101.70374 | 66 ft | 20 kts | 57° |
| 2026-05-07 14:53 | 2.74727 | 101.70494 | 67 ft | 21 kts | 57° |
| 2026-05-07 14:53 | 2.74809 | 101.70616 | 69 ft | 21 kts | 55° |
| 2026-05-07 14:53 | 2.74896 | 101.70740 | 83 ft | 22 kts | 55° |
| 2026-05-07 14:53 | 2.74987 | 101.70871 | 82 ft | 24 kts | 55° |
| 2026-05-07 14:54 | 2.75087 | 101.71013 | 82 ft | 25 kts | 55° |
| 2026-05-07 14:54 | 2.75184 | 101.71154 | 83 ft | 23 kts | 55° |
| 2026-05-07 14:54 | 2.75211 | 101.71254 | 81 ft | 15 kts | 116° |
| 2026-05-07 14:54 | 2.75122 | 101.71323 | 67 ft | 18 kts | 147° |